<?xml version='1.0' encoding='UTF-8'?>
<gpx version="1.1" creator="https://www.komoot.de" xmlns="http://www.topografix.com/GPX/1/1" xmlns:xsi="http://www.w3.org/2001/XMLSchema-instance" xsi:schemaLocation="http://www.topografix.com/GPX/1/1 http://www.topografix.com/GPX/1/1/gpx.xsd">
  <metadata>
    <name>Area Valli del Verbano_Enduro dei Mufloni flow</name>
    <author>
      <link href="https://www.komoot.de">
        <text>komoot</text>
        <type>text/html</type>
      </link>
    </author>
  </metadata>
  <trk>
    <name>Area Valli del Verbano_Enduro dei Mufloni flow</name>
    <trkseg>
      <trkpt lat="45.904325" lon="8.741463">
        <ele>282.437394</ele>
        <time>2022-09-13T11:47:32.106Z</time>
      </trkpt>
      <trkpt lat="45.904446" lon="8.741283">
        <ele>282.437394</ele>
        <time>2022-09-13T11:47:36.602Z</time>
      </trkpt>
      <trkpt lat="45.904048" lon="8.740913">
        <ele>282.437394</ele>
        <time>2022-09-13T11:47:47.751Z</time>
      </trkpt>
      <trkpt lat="45.903698" lon="8.740805">
        <ele>282.567382</ele>
        <time>2022-09-13T11:47:56.426Z</time>
      </trkpt>
      <trkpt lat="45.903557" lon="8.740572">
        <ele>282.828834</ele>
        <time>2022-09-13T11:48:01.909Z</time>
      </trkpt>
      <trkpt lat="45.903482" lon="8.740331">
        <ele>283.052371</ele>
        <time>2022-09-13T11:48:06.408Z</time>
      </trkpt>
      <trkpt lat="45.903452" lon="8.740161">
        <ele>283.200871</ele>
        <time>2022-09-13T11:48:09.615Z</time>
      </trkpt>
      <trkpt lat="45.903473" lon="8.739698">
        <ele>283.593736</ele>
        <time>2022-09-13T11:48:17.841Z</time>
      </trkpt>
      <trkpt lat="45.903457" lon="8.739583">
        <ele>283.693037</ele>
        <time>2022-09-13T11:48:19.906Z</time>
      </trkpt>
      <trkpt lat="45.903266" lon="8.738947">
        <ele>284.279565</ele>
        <time>2022-09-13T11:48:32.203Z</time>
      </trkpt>
      <trkpt lat="45.903146" lon="8.737932">
        <ele>284.880312</ele>
        <time>2022-09-13T11:48:50.251Z</time>
      </trkpt>
      <trkpt lat="45.903208" lon="8.737217">
        <ele>285.175693</ele>
        <time>2022-09-13T11:49:02.297Z</time>
      </trkpt>
      <trkpt lat="45.903213" lon="8.736450">
        <ele>285.490139</ele>
        <time>2022-09-13T11:49:14.614Z</time>
      </trkpt>
      <trkpt lat="45.903010" lon="8.735377">
        <ele>285.944389</ele>
        <time>2022-09-13T11:49:31.240Z</time>
      </trkpt>
      <trkpt lat="45.902993" lon="8.735272">
        <ele>285.988314</ele>
        <time>2022-09-13T11:49:32.854Z</time>
      </trkpt>
      <trkpt lat="45.902900" lon="8.734832">
        <ele>286.175676</ele>
        <time>2022-09-13T11:49:40.031Z</time>
      </trkpt>
      <trkpt lat="45.902712" lon="8.733638">
        <ele>286.674462</ele>
        <time>2022-09-13T11:50:00.685Z</time>
      </trkpt>
      <trkpt lat="45.903470" lon="8.733447">
        <ele>288.320816</ele>
        <time>2022-09-13T11:50:21.125Z</time>
      </trkpt>
      <trkpt lat="45.903861" lon="8.733349">
        <ele>289.272455</ele>
        <time>2022-09-13T11:50:32.026Z</time>
      </trkpt>
      <trkpt lat="45.904207" lon="8.733265">
        <ele>290.113802</ele>
        <time>2022-09-13T11:50:41.733Z</time>
      </trkpt>
      <trkpt lat="45.904398" lon="8.733182">
        <ele>290.592236</ele>
        <time>2022-09-13T11:50:47.844Z</time>
      </trkpt>
      <trkpt lat="45.904735" lon="8.733000">
        <ele>291.636423</ele>
        <time>2022-09-13T11:50:58.326Z</time>
      </trkpt>
      <trkpt lat="45.905618" lon="8.732424">
        <ele>295.002660</ele>
        <time>2022-09-13T11:51:25.420Z</time>
      </trkpt>
      <trkpt lat="45.905654" lon="8.732368">
        <ele>295.186822</ele>
        <time>2022-09-13T11:51:27.416Z</time>
      </trkpt>
      <trkpt lat="45.906267" lon="8.731065">
        <ele>299.070487</ele>
        <time>2022-09-13T11:52:01.830Z</time>
      </trkpt>
      <trkpt lat="45.906740" lon="8.730188">
        <ele>301.884467</ele>
        <time>2022-09-13T11:52:25.410Z</time>
      </trkpt>
      <trkpt lat="45.906789" lon="8.730101">
        <ele>302.168319</ele>
        <time>2022-09-13T11:52:27.192Z</time>
      </trkpt>
      <trkpt lat="45.906938" lon="8.729896">
        <ele>302.920104</ele>
        <time>2022-09-13T11:52:33.786Z</time>
      </trkpt>
      <trkpt lat="45.907497" lon="8.729591">
        <ele>306.058954</ele>
        <time>2022-09-13T11:52:50.248Z</time>
      </trkpt>
      <trkpt lat="45.907359" lon="8.729245">
        <ele>307.847432</ele>
        <time>2022-09-13T11:52:57.564Z</time>
      </trkpt>
      <trkpt lat="45.907266" lon="8.729145">
        <ele>308.596009</ele>
        <time>2022-09-13T11:53:03.242Z</time>
      </trkpt>
      <trkpt lat="45.906986" lon="8.728946">
        <ele>310.609207</ele>
        <time>2022-09-13T11:53:15.699Z</time>
      </trkpt>
      <trkpt lat="45.906633" lon="8.728285">
        <ele>314.345926</ele>
        <time>2022-09-13T11:53:41.162Z</time>
      </trkpt>
      <trkpt lat="45.906751" lon="8.727875">
        <ele>316.935390</ele>
        <time>2022-09-13T11:53:55.248Z</time>
      </trkpt>
      <trkpt lat="45.906887" lon="8.727913">
        <ele>318.427908</ele>
        <time>2022-09-13T11:54:02.655Z</time>
      </trkpt>
      <trkpt lat="45.907022" lon="8.727876">
        <ele>319.908431</ele>
        <time>2022-09-13T11:54:10.174Z</time>
      </trkpt>
      <trkpt lat="45.908302" lon="8.727353">
        <ele>334.243925</ele>
        <time>2022-09-13T11:55:17.548Z</time>
      </trkpt>
      <trkpt lat="45.908266" lon="8.726970">
        <ele>336.802808</ele>
        <time>2022-09-13T11:55:32.841Z</time>
      </trkpt>
      <trkpt lat="45.908217" lon="8.726445">
        <ele>340.195269</ele>
        <time>2022-09-13T11:55:54.473Z</time>
      </trkpt>
      <trkpt lat="45.908206" lon="8.726327">
        <ele>340.957749</ele>
        <time>2022-09-13T11:55:58.570Z</time>
      </trkpt>
      <trkpt lat="45.908232" lon="8.725727">
        <ele>344.807879</ele>
        <time>2022-09-13T11:56:17.605Z</time>
      </trkpt>
      <trkpt lat="45.908773" lon="8.724990">
        <ele>351.477591</ele>
        <time>2022-09-13T11:56:43.896Z</time>
      </trkpt>
      <trkpt lat="45.908918" lon="8.724859">
        <ele>352.030710</ele>
        <time>2022-09-13T11:56:51.956Z</time>
      </trkpt>
      <trkpt lat="45.909022" lon="8.724660">
        <ele>352.589971</ele>
        <time>2022-09-13T11:56:57.498Z</time>
      </trkpt>
      <trkpt lat="45.909044" lon="8.724491">
        <ele>352.976320</ele>
        <time>2022-09-13T11:57:03.647Z</time>
      </trkpt>
      <trkpt lat="45.909018" lon="8.723903">
        <ele>354.300279</ele>
        <time>2022-09-13T11:57:19.595Z</time>
      </trkpt>
      <trkpt lat="45.909046" lon="8.723671">
        <ele>354.829390</ele>
        <time>2022-09-13T11:57:24.079Z</time>
      </trkpt>
      <trkpt lat="45.909188" lon="8.723202">
        <ele>355.978732</ele>
        <time>2022-09-13T11:57:33.848Z</time>
      </trkpt>
      <trkpt lat="45.909272" lon="8.722773">
        <ele>356.980177</ele>
        <time>2022-09-13T11:57:40.923Z</time>
      </trkpt>
      <trkpt lat="45.909253" lon="8.722233">
        <ele>355.768329</ele>
        <time>2022-09-13T11:57:47.290Z</time>
      </trkpt>
      <trkpt lat="45.909131" lon="8.721651">
        <ele>353.859659</ele>
        <time>2022-09-13T11:57:54.208Z</time>
      </trkpt>
      <trkpt lat="45.908875" lon="8.721113">
        <ele>351.813018</ele>
        <time>2022-09-13T11:58:01.702Z</time>
      </trkpt>
      <trkpt lat="45.908801" lon="8.720878">
        <ele>351.003040</ele>
        <time>2022-09-13T11:58:04.721Z</time>
      </trkpt>
      <trkpt lat="45.908909" lon="8.720518">
        <ele>349.772003</ele>
        <time>2022-09-13T11:58:09.151Z</time>
      </trkpt>
      <trkpt lat="45.908965" lon="8.719938">
        <ele>350.630932</ele>
        <time>2022-09-13T11:58:16.156Z</time>
      </trkpt>
      <trkpt lat="45.909032" lon="8.719778">
        <ele>351.441430</ele>
        <time>2022-09-13T11:58:19.681Z</time>
      </trkpt>
      <trkpt lat="45.909189" lon="8.719570">
        <ele>352.773371</ele>
        <time>2022-09-13T11:58:25.899Z</time>
      </trkpt>
      <trkpt lat="45.909216" lon="8.719421">
        <ele>353.441633</ele>
        <time>2022-09-13T11:58:31.401Z</time>
      </trkpt>
      <trkpt lat="45.909188" lon="8.719271">
        <ele>354.115686</ele>
        <time>2022-09-13T11:58:34.461Z</time>
      </trkpt>
      <trkpt lat="45.909224" lon="8.719093">
        <ele>354.920218</ele>
        <time>2022-09-13T11:58:39.325Z</time>
      </trkpt>
      <trkpt lat="45.909450" lon="8.718836">
        <ele>356.717864</ele>
        <time>2022-09-13T11:58:52.902Z</time>
      </trkpt>
      <trkpt lat="45.909196" lon="8.718406">
        <ele>359.165989</ele>
        <time>2022-09-13T11:59:14.932Z</time>
      </trkpt>
      <trkpt lat="45.909311" lon="8.718485">
        <ele>359.961063</ele>
        <time>2022-09-13T11:59:26.405Z</time>
      </trkpt>
      <trkpt lat="45.909545" lon="8.718514">
        <ele>362.375409</ele>
        <time>2022-09-13T11:59:35.051Z</time>
      </trkpt>
      <trkpt lat="45.910062" lon="8.718293">
        <ele>368.539402</ele>
        <time>2022-09-13T12:00:10.315Z</time>
      </trkpt>
      <trkpt lat="45.910463" lon="8.717974">
        <ele>373.777115</ele>
        <time>2022-09-13T12:00:35.435Z</time>
      </trkpt>
      <trkpt lat="45.910617" lon="8.717736">
        <ele>376.361377</ele>
        <time>2022-09-13T12:00:49.649Z</time>
      </trkpt>
      <trkpt lat="45.910738" lon="8.717373">
        <ele>379.561819</ele>
        <time>2022-09-13T12:00:59.703Z</time>
      </trkpt>
      <trkpt lat="45.910770" lon="8.717349">
        <ele>379.974307</ele>
        <time>2022-09-13T12:01:01.042Z</time>
      </trkpt>
      <trkpt lat="45.910816" lon="8.717372">
        <ele>380.530891</ele>
        <time>2022-09-13T12:01:02.759Z</time>
      </trkpt>
      <trkpt lat="45.910847" lon="8.717426">
        <ele>380.943742</ele>
        <time>2022-09-13T12:01:04.088Z</time>
      </trkpt>
      <trkpt lat="45.910846" lon="8.717514">
        <ele>381.237293</ele>
        <time>2022-09-13T12:01:05.608Z</time>
      </trkpt>
      <trkpt lat="45.910807" lon="8.717615">
        <ele>381.622565</ele>
        <time>2022-09-13T12:01:10.314Z</time>
      </trkpt>
      <trkpt lat="45.910523" lon="8.718072">
        <ele>383.666298</ele>
        <time>2022-09-13T12:01:24.730Z</time>
      </trkpt>
      <trkpt lat="45.910392" lon="8.718236">
        <ele>384.499106</ele>
        <time>2022-09-13T12:01:30.632Z</time>
      </trkpt>
      <trkpt lat="45.910056" lon="8.718554">
        <ele>386.427661</ele>
        <time>2022-09-13T12:01:43.376Z</time>
      </trkpt>
      <trkpt lat="45.909992" lon="8.718670">
        <ele>386.921445</ele>
        <time>2022-09-13T12:01:47.575Z</time>
      </trkpt>
      <trkpt lat="45.909987" lon="8.718855">
        <ele>387.538962</ele>
        <time>2022-09-13T12:01:49.939Z</time>
      </trkpt>
      <trkpt lat="45.910017" lon="8.718913">
        <ele>387.780014</ele>
        <time>2022-09-13T12:01:51.044Z</time>
      </trkpt>
      <trkpt lat="45.910071" lon="8.718914">
        <ele>388.038897</ele>
        <time>2022-09-13T12:01:52.057Z</time>
      </trkpt>
      <trkpt lat="45.910117" lon="8.718858">
        <ele>388.327883</ele>
        <time>2022-09-13T12:01:54.988Z</time>
      </trkpt>
      <trkpt lat="45.910162" lon="8.718659">
        <ele>389.025803</ele>
        <time>2022-09-13T12:01:59.393Z</time>
      </trkpt>
      <trkpt lat="45.910315" lon="8.718443">
        <ele>390.001509</ele>
        <time>2022-09-13T12:02:04.136Z</time>
      </trkpt>
      <trkpt lat="45.910884" lon="8.718033">
        <ele>392.782664</ele>
        <time>2022-09-13T12:02:25.043Z</time>
      </trkpt>
      <trkpt lat="45.910936" lon="8.717942">
        <ele>393.140659</ele>
        <time>2022-09-13T12:02:28.125Z</time>
      </trkpt>
      <trkpt lat="45.910980" lon="8.717772">
        <ele>393.692082</ele>
        <time>2022-09-13T12:02:31.465Z</time>
      </trkpt>
      <trkpt lat="45.911132" lon="8.717598">
        <ele>394.541150</ele>
        <time>2022-09-13T12:02:39.336Z</time>
      </trkpt>
      <trkpt lat="45.911152" lon="8.717315">
        <ele>395.405930</ele>
        <time>2022-09-13T12:02:44.976Z</time>
      </trkpt>
      <trkpt lat="45.911215" lon="8.717272">
        <ele>395.710666</ele>
        <time>2022-09-13T12:02:48.627Z</time>
      </trkpt>
      <trkpt lat="45.911246" lon="8.717290">
        <ele>395.856754</ele>
        <time>2022-09-13T12:02:50.475Z</time>
      </trkpt>
      <trkpt lat="45.911272" lon="8.717342">
        <ele>396.051426</ele>
        <time>2022-09-13T12:02:52.675Z</time>
      </trkpt>
      <trkpt lat="45.911277" lon="8.717449">
        <ele>396.377451</ele>
        <time>2022-09-13T12:02:55.206Z</time>
      </trkpt>
      <trkpt lat="45.911231" lon="8.717651">
        <ele>397.023609</ele>
        <time>2022-09-13T12:02:59.501Z</time>
      </trkpt>
      <trkpt lat="45.911121" lon="8.717804">
        <ele>397.523503</ele>
        <time>2022-09-13T12:03:05.211Z</time>
      </trkpt>
      <trkpt lat="45.910964" lon="8.718164">
        <ele>398.227585</ele>
        <time>2022-09-13T12:03:12.695Z</time>
      </trkpt>
      <trkpt lat="45.910765" lon="8.718456">
        <ele>398.904931</ele>
        <time>2022-09-13T12:03:18.182Z</time>
      </trkpt>
      <trkpt lat="45.910707" lon="8.718698">
        <ele>399.329091</ele>
        <time>2022-09-13T12:03:23.403Z</time>
      </trkpt>
      <trkpt lat="45.910790" lon="8.719437">
        <ele>400.569591</ele>
        <time>2022-09-13T12:03:37.513Z</time>
      </trkpt>
      <trkpt lat="45.910827" lon="8.719504">
        <ele>400.711343</ele>
        <time>2022-09-13T12:03:40.196Z</time>
      </trkpt>
      <trkpt lat="45.910878" lon="8.719504">
        <ele>400.832812</ele>
        <time>2022-09-13T12:03:43.604Z</time>
      </trkpt>
      <trkpt lat="45.910901" lon="8.719467">
        <ele>400.915034</ele>
        <time>2022-09-13T12:03:45.059Z</time>
      </trkpt>
      <trkpt lat="45.910900" lon="8.719362">
        <ele>401.089052</ele>
        <time>2022-09-13T12:03:46.326Z</time>
      </trkpt>
      <trkpt lat="45.910857" lon="8.718712">
        <ele>402.305138</ele>
        <time>2022-09-13T12:03:55.659Z</time>
      </trkpt>
      <trkpt lat="45.910870" lon="8.718577">
        <ele>402.584475</ele>
        <time>2022-09-13T12:03:57.853Z</time>
      </trkpt>
      <trkpt lat="45.910935" lon="8.718547">
        <ele>402.785584</ele>
        <time>2022-09-13T12:04:00.285Z</time>
      </trkpt>
      <trkpt lat="45.910978" lon="8.718567">
        <ele>402.918722</ele>
        <time>2022-09-13T12:04:01.185Z</time>
      </trkpt>
      <trkpt lat="45.911008" lon="8.718660">
        <ele>403.128828</ele>
        <time>2022-09-13T12:04:03.336Z</time>
      </trkpt>
      <trkpt lat="45.910970" lon="8.719352">
        <ele>404.551579</ele>
        <time>2022-09-13T12:04:18.582Z</time>
      </trkpt>
      <trkpt lat="45.910980" lon="8.719448">
        <ele>404.750537</ele>
        <time>2022-09-13T12:04:20.444Z</time>
      </trkpt>
      <trkpt lat="45.911012" lon="8.719497">
        <ele>404.888278</ele>
        <time>2022-09-13T12:04:22.098Z</time>
      </trkpt>
      <trkpt lat="45.911052" lon="8.719509">
        <ele>405.008650</ele>
        <time>2022-09-13T12:04:22.952Z</time>
      </trkpt>
      <trkpt lat="45.911084" lon="8.719491">
        <ele>405.109878</ele>
        <time>2022-09-13T12:04:23.825Z</time>
      </trkpt>
      <trkpt lat="45.911095" lon="8.719448">
        <ele>405.203780</ele>
        <time>2022-09-13T12:04:24.674Z</time>
      </trkpt>
      <trkpt lat="45.911097" lon="8.719386">
        <ele>405.330994</ele>
        <time>2022-09-13T12:04:25.741Z</time>
      </trkpt>
      <trkpt lat="45.911061" lon="8.719281">
        <ele>405.570914</ele>
        <time>2022-09-13T12:04:27.859Z</time>
      </trkpt>
      <trkpt lat="45.911063" lon="8.719049">
        <ele>406.046464</ele>
        <time>2022-09-13T12:04:32.377Z</time>
      </trkpt>
      <trkpt lat="45.911090" lon="8.718837">
        <ele>406.488203</ele>
        <time>2022-09-13T12:04:38.012Z</time>
      </trkpt>
      <trkpt lat="45.911185" lon="8.718676">
        <ele>406.921549</ele>
        <time>2022-09-13T12:04:43.346Z</time>
      </trkpt>
      <trkpt lat="45.911350" lon="8.718395">
        <ele>407.704037</ele>
        <time>2022-09-13T12:04:50.616Z</time>
      </trkpt>
      <trkpt lat="45.911597" lon="8.718140">
        <ele>408.634212</ele>
        <time>2022-09-13T12:04:57.698Z</time>
      </trkpt>
      <trkpt lat="45.911653" lon="8.717974">
        <ele>409.026806</ele>
        <time>2022-09-13T12:05:02.684Z</time>
      </trkpt>
      <trkpt lat="45.911702" lon="8.717652">
        <ele>409.728244</ele>
        <time>2022-09-13T12:05:07.686Z</time>
      </trkpt>
      <trkpt lat="45.911775" lon="8.717510">
        <ele>410.103970</ele>
        <time>2022-09-13T12:05:13.845Z</time>
      </trkpt>
      <trkpt lat="45.911852" lon="8.717493">
        <ele>410.342245</ele>
        <time>2022-09-13T12:05:15.210Z</time>
      </trkpt>
      <trkpt lat="45.911864" lon="8.717577">
        <ele>410.524732</ele>
        <time>2022-09-13T12:05:16.418Z</time>
      </trkpt>
      <trkpt lat="45.911750" lon="8.717857">
        <ele>411.215114</ele>
        <time>2022-09-13T12:05:29.637Z</time>
      </trkpt>
      <trkpt lat="45.911701" lon="8.718124">
        <ele>411.802743</ele>
        <time>2022-09-13T12:05:32.475Z</time>
      </trkpt>
      <trkpt lat="45.911609" lon="8.718283">
        <ele>412.242824</ele>
        <time>2022-09-13T12:05:40.281Z</time>
      </trkpt>
      <trkpt lat="45.911449" lon="8.718656">
        <ele>412.962370</ele>
        <time>2022-09-13T12:05:45.779Z</time>
      </trkpt>
      <trkpt lat="45.911421" lon="8.718978">
        <ele>413.462088</ele>
        <time>2022-09-13T12:05:50.433Z</time>
      </trkpt>
      <trkpt lat="45.911339" lon="8.719468">
        <ele>414.238179</ele>
        <time>2022-09-13T12:06:02.041Z</time>
      </trkpt>
      <trkpt lat="45.911348" lon="8.719526">
        <ele>414.329690</ele>
        <time>2022-09-13T12:06:03.634Z</time>
      </trkpt>
      <trkpt lat="45.911379" lon="8.719558">
        <ele>414.414165</ele>
        <time>2022-09-13T12:06:05.828Z</time>
      </trkpt>
      <trkpt lat="45.911427" lon="8.719554">
        <ele>414.520581</ele>
        <time>2022-09-13T12:06:08.098Z</time>
      </trkpt>
      <trkpt lat="45.911466" lon="8.719441">
        <ele>414.714827</ele>
        <time>2022-09-13T12:06:15.732Z</time>
      </trkpt>
      <trkpt lat="45.911457" lon="8.719241">
        <ele>415.023459</ele>
        <time>2022-09-13T12:06:17.721Z</time>
      </trkpt>
      <trkpt lat="45.911524" lon="8.718962">
        <ele>415.477973</ele>
        <time>2022-09-13T12:06:24.506Z</time>
      </trkpt>
      <trkpt lat="45.911665" lon="8.718598">
        <ele>416.119528</ele>
        <time>2022-09-13T12:06:29.448Z</time>
      </trkpt>
      <trkpt lat="45.911935" lon="8.718327">
        <ele>416.703066</ele>
        <time>2022-09-13T12:06:37.372Z</time>
      </trkpt>
      <trkpt lat="45.912005" lon="8.718130">
        <ele>416.936705</ele>
        <time>2022-09-13T12:06:42.738Z</time>
      </trkpt>
      <trkpt lat="45.912059" lon="8.717875">
        <ele>417.218238</ele>
        <time>2022-09-13T12:06:45.617Z</time>
      </trkpt>
      <trkpt lat="45.912136" lon="8.717824">
        <ele>417.346944</ele>
        <time>2022-09-13T12:06:47.879Z</time>
      </trkpt>
      <trkpt lat="45.912166" lon="8.717845">
        <ele>417.397600</ele>
        <time>2022-09-13T12:06:49.642Z</time>
      </trkpt>
      <trkpt lat="45.912179" lon="8.717904">
        <ele>417.462967</ele>
        <time>2022-09-13T12:06:50.755Z</time>
      </trkpt>
      <trkpt lat="45.912080" lon="8.718143">
        <ele>417.756752</ele>
        <time>2022-09-13T12:06:53.800Z</time>
      </trkpt>
      <trkpt lat="45.912021" lon="8.718423">
        <ele>418.065757</ele>
        <time>2022-09-13T12:06:59.468Z</time>
      </trkpt>
      <trkpt lat="45.911871" lon="8.718649">
        <ele>418.395654</ele>
        <time>2022-09-13T12:07:05.685Z</time>
      </trkpt>
      <trkpt lat="45.911806" lon="8.718815">
        <ele>418.596845</ele>
        <time>2022-09-13T12:07:10.385Z</time>
      </trkpt>
      <trkpt lat="45.911750" lon="8.719098">
        <ele>418.907609</ele>
        <time>2022-09-13T12:07:17.284Z</time>
      </trkpt>
      <trkpt lat="45.911774" lon="8.719142">
        <ele>418.966662</ele>
        <time>2022-09-13T12:07:18.419Z</time>
      </trkpt>
      <trkpt lat="45.911858" lon="8.719119">
        <ele>419.096473</ele>
        <time>2022-09-13T12:07:21.637Z</time>
      </trkpt>
      <trkpt lat="45.911910" lon="8.718801">
        <ele>420.776949</ele>
        <time>2022-09-13T12:07:28.873Z</time>
      </trkpt>
      <trkpt lat="45.911952" lon="8.718701">
        <ele>421.406742</ele>
        <time>2022-09-13T12:07:31.140Z</time>
      </trkpt>
      <trkpt lat="45.912121" lon="8.718519">
        <ele>423.043232</ele>
        <time>2022-09-13T12:07:36.855Z</time>
      </trkpt>
      <trkpt lat="45.912186" lon="8.718359">
        <ele>424.042195</ele>
        <time>2022-09-13T12:07:40.128Z</time>
      </trkpt>
      <trkpt lat="45.912315" lon="8.718214">
        <ele>425.311266</ele>
        <time>2022-09-13T12:07:46.318Z</time>
      </trkpt>
      <trkpt lat="45.912444" lon="8.718230">
        <ele>426.314649</ele>
        <time>2022-09-13T12:07:51.825Z</time>
      </trkpt>
      <trkpt lat="45.912507" lon="8.718198">
        <ele>426.832449</ele>
        <time>2022-09-13T12:07:53.864Z</time>
      </trkpt>
      <trkpt lat="45.912901" lon="8.717573">
        <ele>431.379730</ele>
        <time>2022-09-13T12:08:24.937Z</time>
      </trkpt>
      <trkpt lat="45.913249" lon="8.716957">
        <ele>436.439363</ele>
        <time>2022-09-13T12:08:53.324Z</time>
      </trkpt>
      <trkpt lat="45.913354" lon="8.716644">
        <ele>438.875168</ele>
        <time>2022-09-13T12:09:07.943Z</time>
      </trkpt>
      <trkpt lat="45.913409" lon="8.716227">
        <ele>441.850329</ele>
        <time>2022-09-13T12:09:22.758Z</time>
      </trkpt>
      <trkpt lat="45.913446" lon="8.716101">
        <ele>442.809014</ele>
        <time>2022-09-13T12:09:26.353Z</time>
      </trkpt>
      <trkpt lat="45.913547" lon="8.716085">
        <ele>443.832780</ele>
        <time>2022-09-13T12:09:29.792Z</time>
      </trkpt>
      <trkpt lat="45.913587" lon="8.716152">
        <ele>444.451647</ele>
        <time>2022-09-13T12:09:35.329Z</time>
      </trkpt>
      <trkpt lat="45.913593" lon="8.716256">
        <ele>445.183168</ele>
        <time>2022-09-13T12:09:38.092Z</time>
      </trkpt>
      <trkpt lat="45.913487" lon="8.716486">
        <ele>447.117064</ele>
        <time>2022-09-13T12:09:44.482Z</time>
      </trkpt>
      <trkpt lat="45.913304" lon="8.717170">
        <ele>452.293190</ele>
        <time>2022-09-13T12:10:07.437Z</time>
      </trkpt>
      <trkpt lat="45.913059" lon="8.717782">
        <ele>457.422338</ele>
        <time>2022-09-13T12:10:28.554Z</time>
      </trkpt>
      <trkpt lat="45.912622" lon="8.718988">
        <ele>467.300064</ele>
        <time>2022-09-13T12:11:11.391Z</time>
      </trkpt>
      <trkpt lat="45.912567" lon="8.719189">
        <ele>468.869064</ele>
        <time>2022-09-13T12:11:15.739Z</time>
      </trkpt>
      <trkpt lat="45.912562" lon="8.719325">
        <ele>469.858396</ele>
        <time>2022-09-13T12:11:23.391Z</time>
      </trkpt>
      <trkpt lat="45.912636" lon="8.719335">
        <ele>471.023575</ele>
        <time>2022-09-13T12:11:30.311Z</time>
      </trkpt>
      <trkpt lat="45.912861" lon="8.718904">
        <ele>477.182780</ele>
        <time>2022-09-13T12:11:59.640Z</time>
      </trkpt>
      <trkpt lat="45.913018" lon="8.718798">
        <ele>480.032558</ele>
        <time>2022-09-13T12:12:08.991Z</time>
      </trkpt>
      <trkpt lat="45.913120" lon="8.718771">
        <ele>481.736511</ele>
        <time>2022-09-13T12:12:17.893Z</time>
      </trkpt>
      <trkpt lat="45.913304" lon="8.718449">
        <ele>486.499417</ele>
        <time>2022-09-13T12:12:38.547Z</time>
      </trkpt>
      <trkpt lat="45.913556" lon="8.718092">
        <ele>492.312564</ele>
        <time>2022-09-13T12:13:04.568Z</time>
      </trkpt>
      <trkpt lat="45.913618" lon="8.718127">
        <ele>493.406917</ele>
        <time>2022-09-13T12:13:10.601Z</time>
      </trkpt>
      <trkpt lat="45.913742" lon="8.717958">
        <ele>496.214380</ele>
        <time>2022-09-13T12:13:26.085Z</time>
      </trkpt>
      <trkpt lat="45.913963" lon="8.717768">
        <ele>500.265699</ele>
        <time>2022-09-13T12:13:38.971Z</time>
      </trkpt>
      <trkpt lat="45.914356" lon="8.717909">
        <ele>505.648702</ele>
        <time>2022-09-13T12:14:03.791Z</time>
      </trkpt>
      <trkpt lat="45.914461" lon="8.717891">
        <ele>507.053983</ele>
        <time>2022-09-13T12:14:09.102Z</time>
      </trkpt>
      <trkpt lat="45.914517" lon="8.717881">
        <ele>507.803914</ele>
        <time>2022-09-13T12:14:10.631Z</time>
      </trkpt>
      <trkpt lat="45.914727" lon="8.717787">
        <ele>510.726896</ele>
        <time>2022-09-13T12:14:27.088Z</time>
      </trkpt>
      <trkpt lat="45.914761" lon="8.717859">
        <ele>511.531457</ele>
        <time>2022-09-13T12:14:30.223Z</time>
      </trkpt>
      <trkpt lat="45.914746" lon="8.717913">
        <ele>512.069056</ele>
        <time>2022-09-13T12:14:31.275Z</time>
      </trkpt>
      <trkpt lat="45.914487" lon="8.718089">
        <ele>515.876305</ele>
        <time>2022-09-13T12:14:50.976Z</time>
      </trkpt>
      <trkpt lat="45.914351" lon="8.718146">
        <ele>517.758939</ele>
        <time>2022-09-13T12:14:57.641Z</time>
      </trkpt>
      <trkpt lat="45.914242" lon="8.718144">
        <ele>519.207607</ele>
        <time>2022-09-13T12:15:02.753Z</time>
      </trkpt>
      <trkpt lat="45.914038" lon="8.718081">
        <ele>521.980525</ele>
        <time>2022-09-13T12:15:13.808Z</time>
      </trkpt>
      <trkpt lat="45.913991" lon="8.718101">
        <ele>522.631928</ele>
        <time>2022-09-13T12:15:15.956Z</time>
      </trkpt>
      <trkpt lat="45.913978" lon="8.718158">
        <ele>523.186542</ele>
        <time>2022-09-13T12:15:17.672Z</time>
      </trkpt>
      <trkpt lat="45.914025" lon="8.718234">
        <ele>524.150806</ele>
        <time>2022-09-13T12:15:20.602Z</time>
      </trkpt>
      <trkpt lat="45.914210" lon="8.718245">
        <ele>526.694085</ele>
        <time>2022-09-13T12:15:30.690Z</time>
      </trkpt>
      <trkpt lat="45.914400" lon="8.718258">
        <ele>529.306824</ele>
        <time>2022-09-13T12:15:39.976Z</time>
      </trkpt>
      <trkpt lat="45.914571" lon="8.718224">
        <ele>531.677996</ele>
        <time>2022-09-13T12:15:50.985Z</time>
      </trkpt>
      <trkpt lat="45.914783" lon="8.718032">
        <ele>535.119815</ele>
        <time>2022-09-13T12:16:04.508Z</time>
      </trkpt>
      <trkpt lat="45.915243" lon="8.717847">
        <ele>541.680912</ele>
        <time>2022-09-13T12:16:36.428Z</time>
      </trkpt>
      <trkpt lat="45.915275" lon="8.717808">
        <ele>542.257191</ele>
        <time>2022-09-13T12:16:39.504Z</time>
      </trkpt>
      <trkpt lat="45.915391" lon="8.717587">
        <ele>544.902745</ele>
        <time>2022-09-13T12:16:52.111Z</time>
      </trkpt>
      <trkpt lat="45.915970" lon="8.717078">
        <ele>552.849261</ele>
        <time>2022-09-13T12:17:35.874Z</time>
      </trkpt>
      <trkpt lat="45.916480" lon="8.717015">
        <ele>558.297038</ele>
        <time>2022-09-13T12:18:06.159Z</time>
      </trkpt>
      <trkpt lat="45.916773" lon="8.716797">
        <ele>561.808332</ele>
        <time>2022-09-13T12:18:19.152Z</time>
      </trkpt>
      <trkpt lat="45.916871" lon="8.716663">
        <ele>563.247840</ele>
        <time>2022-09-13T12:18:23.770Z</time>
      </trkpt>
      <trkpt lat="45.916907" lon="8.716614">
        <ele>563.775495</ele>
        <time>2022-09-13T12:18:25.981Z</time>
      </trkpt>
      <trkpt lat="45.916965" lon="8.716297">
        <ele>566.202415</ele>
        <time>2022-09-13T12:18:33.566Z</time>
      </trkpt>
      <trkpt lat="45.917003" lon="8.716201">
        <ele>567.020208</ele>
        <time>2022-09-13T12:18:36.326Z</time>
      </trkpt>
      <trkpt lat="45.917162" lon="8.715986">
        <ele>567.942131</ele>
        <time>2022-09-13T12:18:45.891Z</time>
      </trkpt>
      <trkpt lat="45.917247" lon="8.715909">
        <ele>568.293231</ele>
        <time>2022-09-13T12:18:48.076Z</time>
      </trkpt>
      <trkpt lat="45.917360" lon="8.715842">
        <ele>568.720387</ele>
        <time>2022-09-13T12:18:53.436Z</time>
      </trkpt>
      <trkpt lat="45.917476" lon="8.715879">
        <ele>569.135611</ele>
        <time>2022-09-13T12:18:58.146Z</time>
      </trkpt>
      <trkpt lat="45.917583" lon="8.715787">
        <ele>569.571312</ele>
        <time>2022-09-13T12:19:00.929Z</time>
      </trkpt>
      <trkpt lat="45.917638" lon="8.715735">
        <ele>569.801359</ele>
        <time>2022-09-13T12:19:03.808Z</time>
      </trkpt>
      <trkpt lat="45.917707" lon="8.715689">
        <ele>570.067151</ele>
        <time>2022-09-13T12:19:07.051Z</time>
      </trkpt>
      <trkpt lat="45.917820" lon="8.715668">
        <ele>570.465318</ele>
        <time>2022-09-13T12:19:11.305Z</time>
      </trkpt>
      <trkpt lat="45.918124" lon="8.715245">
        <ele>571.943850</ele>
        <time>2022-09-13T12:19:21.139Z</time>
      </trkpt>
      <trkpt lat="45.918110" lon="8.715198">
        <ele>572.068144</ele>
        <time>2022-09-13T12:19:21.741Z</time>
      </trkpt>
      <trkpt lat="45.918274" lon="8.715056">
        <ele>572.737185</ele>
        <time>2022-09-13T12:19:27.275Z</time>
      </trkpt>
      <trkpt lat="45.918482" lon="8.715207">
        <ele>573.540642</ele>
        <time>2022-09-13T12:19:33.058Z</time>
      </trkpt>
      <trkpt lat="45.918560" lon="8.715168">
        <ele>573.483262</ele>
        <time>2022-09-13T12:19:35.467Z</time>
      </trkpt>
      <trkpt lat="45.918897" lon="8.714771">
        <ele>573.180520</ele>
        <time>2022-09-13T12:19:46.367Z</time>
      </trkpt>
      <trkpt lat="45.919044" lon="8.714635">
        <ele>573.059055</ele>
        <time>2022-09-13T12:19:50.356Z</time>
      </trkpt>
      <trkpt lat="45.919317" lon="8.714249">
        <ele>572.792987</ele>
        <time>2022-09-13T12:19:58.594Z</time>
      </trkpt>
      <trkpt lat="45.919618" lon="8.713648">
        <ele>572.435033</ele>
        <time>2022-09-13T12:20:07.995Z</time>
      </trkpt>
      <trkpt lat="45.919796" lon="8.713168">
        <ele>572.041046</ele>
        <time>2022-09-13T12:20:14.298Z</time>
      </trkpt>
      <trkpt lat="45.919933" lon="8.712965">
        <ele>571.755758</ele>
        <time>2022-09-13T12:20:19.495Z</time>
      </trkpt>
      <trkpt lat="45.920117" lon="8.712800">
        <ele>571.441306</ele>
        <time>2022-09-13T12:20:22.685Z</time>
      </trkpt>
      <trkpt lat="45.920208" lon="8.712772">
        <ele>571.306370</ele>
        <time>2022-09-13T12:20:25.232Z</time>
      </trkpt>
      <trkpt lat="45.920333" lon="8.712859">
        <ele>571.104996</ele>
        <time>2022-09-13T12:20:27.334Z</time>
      </trkpt>
      <trkpt lat="45.920423" lon="8.712966">
        <ele>570.935650</ele>
        <time>2022-09-13T12:20:29.557Z</time>
      </trkpt>
      <trkpt lat="45.920495" lon="8.713000">
        <ele>570.825763</ele>
        <time>2022-09-13T12:20:32.732Z</time>
      </trkpt>
      <trkpt lat="45.920566" lon="8.712970">
        <ele>570.718460</ele>
        <time>2022-09-13T12:20:34.769Z</time>
      </trkpt>
      <trkpt lat="45.920620" lon="8.712847">
        <ele>570.571751</ele>
        <time>2022-09-13T12:20:36.223Z</time>
      </trkpt>
      <trkpt lat="45.920604" lon="8.712715">
        <ele>570.436599</ele>
        <time>2022-09-13T12:20:38.133Z</time>
      </trkpt>
      <trkpt lat="45.920446" lon="8.712253">
        <ele>569.917320</ele>
        <time>2022-09-13T12:20:45.885Z</time>
      </trkpt>
      <trkpt lat="45.920467" lon="8.711978">
        <ele>569.728210</ele>
        <time>2022-09-13T12:20:51.852Z</time>
      </trkpt>
      <trkpt lat="45.920530" lon="8.711747">
        <ele>569.962440</ele>
        <time>2022-09-13T12:20:54.834Z</time>
      </trkpt>
      <trkpt lat="45.920597" lon="8.711632">
        <ele>570.104047</ele>
        <time>2022-09-13T12:20:59.281Z</time>
      </trkpt>
      <trkpt lat="45.921033" lon="8.711452">
        <ele>570.719631</ele>
        <time>2022-09-13T12:21:10.470Z</time>
      </trkpt>
      <trkpt lat="45.921235" lon="8.711252">
        <ele>571.052480</ele>
        <time>2022-09-13T12:21:15.524Z</time>
      </trkpt>
      <trkpt lat="45.921553" lon="8.711068">
        <ele>571.517662</ele>
        <time>2022-09-13T12:21:24.908Z</time>
      </trkpt>
      <trkpt lat="45.921871" lon="8.710723">
        <ele>572.058303</ele>
        <time>2022-09-13T12:21:35.794Z</time>
      </trkpt>
      <trkpt lat="45.922037" lon="8.710466">
        <ele>572.368748</ele>
        <time>2022-09-13T12:21:42.270Z</time>
      </trkpt>
      <trkpt lat="45.922130" lon="8.710396">
        <ele>572.500072</ele>
        <time>2022-09-13T12:21:45.032Z</time>
      </trkpt>
      <trkpt lat="45.922451" lon="8.710301">
        <ele>572.910055</ele>
        <time>2022-09-13T12:21:53.707Z</time>
      </trkpt>
      <trkpt lat="45.922744" lon="8.710136">
        <ele>573.303710</ele>
        <time>2022-09-13T12:22:02.106Z</time>
      </trkpt>
      <trkpt lat="45.922934" lon="8.709958">
        <ele>573.587412</ele>
        <time>2022-09-13T12:22:07.865Z</time>
      </trkpt>
      <trkpt lat="45.923385" lon="8.709253">
        <ele>574.386147</ele>
        <time>2022-09-13T12:22:23.389Z</time>
      </trkpt>
      <trkpt lat="45.923466" lon="8.709221">
        <ele>574.410632</ele>
        <time>2022-09-13T12:22:25.242Z</time>
      </trkpt>
      <trkpt lat="45.923709" lon="8.709226">
        <ele>574.481467</ele>
        <time>2022-09-13T12:22:30.348Z</time>
      </trkpt>
      <trkpt lat="45.923837" lon="8.709192">
        <ele>574.519407</ele>
        <time>2022-09-13T12:22:33.083Z</time>
      </trkpt>
      <trkpt lat="45.924321" lon="8.708864">
        <ele>574.675370</ele>
        <time>2022-09-13T12:22:44.076Z</time>
      </trkpt>
      <trkpt lat="45.924537" lon="8.708662">
        <ele>574.750477</ele>
        <time>2022-09-13T12:22:49.467Z</time>
      </trkpt>
      <trkpt lat="45.924794" lon="8.708372">
        <ele>574.845705</ele>
        <time>2022-09-13T12:22:58.155Z</time>
      </trkpt>
      <trkpt lat="45.924999" lon="8.707825">
        <ele>575.771398</ele>
        <time>2022-09-13T12:23:09.250Z</time>
      </trkpt>
      <trkpt lat="45.925001" lon="8.707542">
        <ele>576.467619</ele>
        <time>2022-09-13T12:23:14.479Z</time>
      </trkpt>
      <trkpt lat="45.924946" lon="8.707063">
        <ele>577.661914</ele>
        <time>2022-09-13T12:23:23.994Z</time>
      </trkpt>
      <trkpt lat="45.924985" lon="8.706946">
        <ele>577.981077</ele>
        <time>2022-09-13T12:23:27.143Z</time>
      </trkpt>
      <trkpt lat="45.925132" lon="8.706829">
        <ele>578.575306</ele>
        <time>2022-09-13T12:23:31.779Z</time>
      </trkpt>
      <trkpt lat="45.925168" lon="8.706749">
        <ele>578.809698</ele>
        <time>2022-09-13T12:23:33.749Z</time>
      </trkpt>
      <trkpt lat="45.925252" lon="8.706566">
        <ele>579.349062</ele>
        <time>2022-09-13T12:23:39.380Z</time>
      </trkpt>
      <trkpt lat="45.925469" lon="8.706209">
        <ele>580.515347</ele>
        <time>2022-09-13T12:23:49.784Z</time>
      </trkpt>
      <trkpt lat="45.925646" lon="8.706050">
        <ele>581.253470</ele>
        <time>2022-09-13T12:23:56.181Z</time>
      </trkpt>
      <trkpt lat="45.925778" lon="8.705846">
        <ele>582.449816</ele>
        <time>2022-09-13T12:24:03.562Z</time>
      </trkpt>
      <trkpt lat="45.926001" lon="8.705191">
        <ele>585.595624</ele>
        <time>2022-09-13T12:24:20.698Z</time>
      </trkpt>
      <trkpt lat="45.926370" lon="8.704654">
        <ele>588.851821</ele>
        <time>2022-09-13T12:24:40.562Z</time>
      </trkpt>
      <trkpt lat="45.926479" lon="8.704340">
        <ele>590.365636</ele>
        <time>2022-09-13T12:24:49.145Z</time>
      </trkpt>
      <trkpt lat="45.926561" lon="8.704190">
        <ele>591.188611</ele>
        <time>2022-09-13T12:24:54.304Z</time>
      </trkpt>
      <trkpt lat="45.926667" lon="8.704099">
        <ele>591.954267</ele>
        <time>2022-09-13T12:24:58.377Z</time>
      </trkpt>
      <trkpt lat="45.928547" lon="8.702978">
        <ele>608.003974</ele>
        <time>2022-09-13T12:26:21.673Z</time>
      </trkpt>
      <trkpt lat="45.928631" lon="8.702958">
        <ele>608.768179</ele>
        <time>2022-09-13T12:26:25.825Z</time>
      </trkpt>
      <trkpt lat="45.928812" lon="8.702789">
        <ele>610.705266</ele>
        <time>2022-09-13T12:26:35.992Z</time>
      </trkpt>
      <trkpt lat="45.928885" lon="8.702699">
        <ele>611.568390</ele>
        <time>2022-09-13T12:26:41.456Z</time>
      </trkpt>
      <trkpt lat="45.929011" lon="8.702424">
        <ele>613.624189</ele>
        <time>2022-09-13T12:26:50.774Z</time>
      </trkpt>
      <trkpt lat="45.929167" lon="8.702232">
        <ele>615.467333</ele>
        <time>2022-09-13T12:27:02.312Z</time>
      </trkpt>
      <trkpt lat="45.929394" lon="8.702057">
        <ele>617.779182</ele>
        <time>2022-09-13T12:27:14.645Z</time>
      </trkpt>
      <trkpt lat="45.929633" lon="8.701921">
        <ele>620.086219</ele>
        <time>2022-09-13T12:27:24.265Z</time>
      </trkpt>
      <trkpt lat="45.929642" lon="8.702010">
        <ele>620.647668</ele>
        <time>2022-09-13T12:27:30.045Z</time>
      </trkpt>
      <trkpt lat="45.929437" lon="8.702864">
        <ele>624.338186</ele>
        <time>2022-09-13T12:27:58.394Z</time>
      </trkpt>
      <trkpt lat="45.929281" lon="8.703754">
        <ele>626.962455</ele>
        <time>2022-09-13T12:28:27.790Z</time>
      </trkpt>
      <trkpt lat="45.928465" lon="8.705222">
        <ele>629.719103</ele>
        <time>2022-09-13T12:29:14.878Z</time>
      </trkpt>
      <trkpt lat="45.928289" lon="8.705345">
        <ele>629.588441</ele>
        <time>2022-09-13T12:29:20.813Z</time>
      </trkpt>
      <trkpt lat="45.928098" lon="8.705743">
        <ele>629.363877</ele>
        <time>2022-09-13T12:29:31.626Z</time>
      </trkpt>
      <trkpt lat="45.927910" lon="8.705778">
        <ele>629.237303</ele>
        <time>2022-09-13T12:29:38.119Z</time>
      </trkpt>
      <trkpt lat="45.927754" lon="8.705679">
        <ele>629.123447</ele>
        <time>2022-09-13T12:29:43.528Z</time>
      </trkpt>
      <trkpt lat="45.927603" lon="8.705441">
        <ele>628.973840</ele>
        <time>2022-09-13T12:29:51.483Z</time>
      </trkpt>
      <trkpt lat="45.927325" lon="8.705105">
        <ele>630.640635</ele>
        <time>2022-09-13T12:30:04.395Z</time>
      </trkpt>
      <trkpt lat="45.927204" lon="8.705061">
        <ele>631.601242</ele>
        <time>2022-09-13T12:30:09.128Z</time>
      </trkpt>
      <trkpt lat="45.927065" lon="8.705115">
        <ele>632.709429</ele>
        <time>2022-09-13T12:30:15.630Z</time>
      </trkpt>
      <trkpt lat="45.926997" lon="8.705411">
        <ele>634.378255</ele>
        <time>2022-09-13T12:30:25.556Z</time>
      </trkpt>
      <trkpt lat="45.926989" lon="8.705740">
        <ele>636.140633</ele>
        <time>2022-09-13T12:30:37.587Z</time>
      </trkpt>
      <trkpt lat="45.927187" lon="8.706361">
        <ele>639.797782</ele>
        <time>2022-09-13T12:31:05.364Z</time>
      </trkpt>
      <trkpt lat="45.927202" lon="8.706771">
        <ele>641.995744</ele>
        <time>2022-09-13T12:31:24.597Z</time>
      </trkpt>
      <trkpt lat="45.927135" lon="8.707165">
        <ele>644.730230</ele>
        <time>2022-09-13T12:31:43.708Z</time>
      </trkpt>
      <trkpt lat="45.927202" lon="8.707837">
        <ele>649.785610</ele>
        <time>2022-09-13T12:32:13.093Z</time>
      </trkpt>
      <trkpt lat="45.927163" lon="8.707979">
        <ele>650.922499</ele>
        <time>2022-09-13T12:32:19.535Z</time>
      </trkpt>
      <trkpt lat="45.926884" lon="8.708549">
        <ele>656.112799</ele>
        <time>2022-09-13T12:32:48.001Z</time>
      </trkpt>
      <trkpt lat="45.926868" lon="8.708669">
        <ele>657.022686</ele>
        <time>2022-09-13T12:32:52.831Z</time>
      </trkpt>
      <trkpt lat="45.926927" lon="8.708695">
        <ele>657.683346</ele>
        <time>2022-09-13T12:32:56.910Z</time>
      </trkpt>
      <trkpt lat="45.927289" lon="8.708392">
        <ele>662.115139</ele>
        <time>2022-09-13T12:33:19.047Z</time>
      </trkpt>
      <trkpt lat="45.927504" lon="8.708189">
        <ele>664.082016</ele>
        <time>2022-09-13T12:33:31.019Z</time>
      </trkpt>
      <trkpt lat="45.927855" lon="8.707788">
        <ele>667.510224</ele>
        <time>2022-09-13T12:33:52.027Z</time>
      </trkpt>
      <trkpt lat="45.927855" lon="8.707788">
        <ele>667.510224</ele>
        <time>2022-09-13T12:33:52.044Z</time>
      </trkpt>
      <trkpt lat="45.927950" lon="8.707834">
        <ele>668.276749</ele>
        <time>2022-09-13T12:33:56.235Z</time>
      </trkpt>
      <trkpt lat="45.927830" lon="8.708167">
        <ele>670.271468</ele>
        <time>2022-09-13T12:34:08.584Z</time>
      </trkpt>
      <trkpt lat="45.927788" lon="8.708486">
        <ele>671.998272</ele>
        <time>2022-09-13T12:34:17.991Z</time>
      </trkpt>
      <trkpt lat="45.927124" lon="8.709607">
        <ele>681.665616</ele>
        <time>2022-09-13T12:35:12.272Z</time>
      </trkpt>
      <trkpt lat="45.925771" lon="8.710648">
        <ele>698.438351</ele>
        <time>2022-09-13T12:36:50.011Z</time>
      </trkpt>
      <trkpt lat="45.925628" lon="8.710822">
        <ele>700.357535</ele>
        <time>2022-09-13T12:37:01.038Z</time>
      </trkpt>
      <trkpt lat="45.925496" lon="8.710935">
        <ele>701.931347</ele>
        <time>2022-09-13T12:37:09.788Z</time>
      </trkpt>
      <trkpt lat="45.925404" lon="8.711098">
        <ele>703.427113</ele>
        <time>2022-09-13T12:37:18.155Z</time>
      </trkpt>
      <trkpt lat="45.925159" lon="8.711429">
        <ele>706.871288</ele>
        <time>2022-09-13T12:37:36.909Z</time>
      </trkpt>
      <trkpt lat="45.925019" lon="8.711675">
        <ele>709.136174</ele>
        <time>2022-09-13T12:37:48.703Z</time>
      </trkpt>
      <trkpt lat="45.924842" lon="8.711900">
        <ele>711.556578</ele>
        <time>2022-09-13T12:38:01.425Z</time>
      </trkpt>
      <trkpt lat="45.924655" lon="8.712281">
        <ele>714.827623</ele>
        <time>2022-09-13T12:38:18.255Z</time>
      </trkpt>
      <trkpt lat="45.924440" lon="8.714358">
        <ele>728.815650</ele>
        <time>2022-09-13T12:39:39.592Z</time>
      </trkpt>
      <trkpt lat="45.924446" lon="8.714508">
        <ele>729.816508</ele>
        <time>2022-09-13T12:39:45.341Z</time>
      </trkpt>
      <trkpt lat="45.924589" lon="8.714926">
        <ele>732.872810</ele>
        <time>2022-09-13T12:40:02.532Z</time>
      </trkpt>
      <trkpt lat="45.924594" lon="8.714349">
        <ele>736.605193</ele>
        <time>2022-09-13T12:40:23.486Z</time>
      </trkpt>
      <trkpt lat="45.924736" lon="8.713893">
        <ele>739.836708</ele>
        <time>2022-09-13T12:40:42.005Z</time>
      </trkpt>
      <trkpt lat="45.924963" lon="8.713335">
        <ele>744.017800</ele>
        <time>2022-09-13T12:41:06.865Z</time>
      </trkpt>
      <trkpt lat="45.925031" lon="8.713056">
        <ele>745.929955</ele>
        <time>2022-09-13T12:41:18.228Z</time>
      </trkpt>
      <trkpt lat="45.925027" lon="8.712584">
        <ele>749.060107</ele>
        <time>2022-09-13T12:41:36.319Z</time>
      </trkpt>
      <trkpt lat="45.925046" lon="8.712407">
        <ele>750.312619</ele>
        <time>2022-09-13T12:41:43.232Z</time>
      </trkpt>
      <trkpt lat="45.925078" lon="8.712348">
        <ele>750.835843</ele>
        <time>2022-09-13T12:41:45.912Z</time>
      </trkpt>
      <trkpt lat="45.925128" lon="8.712375">
        <ele>751.372837</ele>
        <time>2022-09-13T12:41:48.599Z</time>
      </trkpt>
      <trkpt lat="45.925140" lon="8.712534">
        <ele>752.491335</ele>
        <time>2022-09-13T12:41:53.760Z</time>
      </trkpt>
      <trkpt lat="45.925088" lon="8.714395">
        <ele>765.516813</ele>
        <time>2022-09-13T12:43:01.800Z</time>
      </trkpt>
      <trkpt lat="45.925124" lon="8.714660">
        <ele>768.040255</ele>
        <time>2022-09-13T12:43:18.305Z</time>
      </trkpt>
      <trkpt lat="45.925266" lon="8.714998">
        <ele>772.165328</ele>
        <time>2022-09-13T12:43:40.171Z</time>
      </trkpt>
      <trkpt lat="45.925743" lon="8.715277">
        <ele>779.899377</ele>
        <time>2022-09-13T12:44:14.508Z</time>
      </trkpt>
      <trkpt lat="45.925825" lon="8.715341">
        <ele>781.300678</ele>
        <time>2022-09-13T12:44:19.236Z</time>
      </trkpt>
      <trkpt lat="45.925859" lon="8.715427">
        <ele>782.334067</ele>
        <time>2022-09-13T12:44:26.207Z</time>
      </trkpt>
      <trkpt lat="45.925629" lon="8.716155">
        <ele>790.686976</ele>
        <time>2022-09-13T12:45:05.278Z</time>
      </trkpt>
      <trkpt lat="45.925538" lon="8.716741">
        <ele>796.345095</ele>
        <time>2022-09-13T12:45:37.877Z</time>
      </trkpt>
      <trkpt lat="45.925180" lon="8.716597">
        <ele>801.032076</ele>
        <time>2022-09-13T12:46:08.595Z</time>
      </trkpt>
      <trkpt lat="45.925113" lon="8.716613">
        <ele>801.888382</ele>
        <time>2022-09-13T12:46:15.429Z</time>
      </trkpt>
      <trkpt lat="45.924879" lon="8.716938">
        <ele>805.990582</ele>
        <time>2022-09-13T12:46:39.723Z</time>
      </trkpt>
      <trkpt lat="45.924815" lon="8.717056">
        <ele>807.302853</ele>
        <time>2022-09-13T12:46:46.512Z</time>
      </trkpt>
      <trkpt lat="45.924726" lon="8.717383">
        <ele>810.382387</ele>
        <time>2022-09-13T12:46:58.592Z</time>
      </trkpt>
      <trkpt lat="45.924286" lon="8.718450">
        <ele>815.961035</ele>
        <time>2022-09-13T12:47:35.138Z</time>
      </trkpt>
      <trkpt lat="45.924127" lon="8.718914">
        <ele>816.087608</ele>
        <time>2022-09-13T12:47:48.521Z</time>
      </trkpt>
      <trkpt lat="45.924088" lon="8.718928">
        <ele>816.101749</ele>
        <time>2022-09-13T12:47:49.667Z</time>
      </trkpt>
      <trkpt lat="45.924034" lon="8.718893">
        <ele>816.122587</ele>
        <time>2022-09-13T12:47:51.703Z</time>
      </trkpt>
      <trkpt lat="45.923748" lon="8.718644">
        <ele>816.240211</ele>
        <time>2022-09-13T12:48:02.888Z</time>
      </trkpt>
      <trkpt lat="45.923370" lon="8.718141">
        <ele>816.421410</ele>
        <time>2022-09-13T12:48:18.477Z</time>
      </trkpt>
      <trkpt lat="45.923228" lon="8.718002">
        <ele>816.573048</ele>
        <time>2022-09-13T12:48:23.822Z</time>
      </trkpt>
      <trkpt lat="45.922392" lon="8.717466">
        <ele>817.625773</ele>
        <time>2022-09-13T12:48:52.619Z</time>
      </trkpt>
      <trkpt lat="45.922305" lon="8.717465">
        <ele>817.725830</ele>
        <time>2022-09-13T12:48:55.852Z</time>
      </trkpt>
      <trkpt lat="45.922164" lon="8.717562">
        <ele>817.905598</ele>
        <time>2022-09-13T12:49:01.578Z</time>
      </trkpt>
      <trkpt lat="45.921879" lon="8.718016">
        <ele>818.394828</ele>
        <time>2022-09-13T12:49:18.374Z</time>
      </trkpt>
      <trkpt lat="45.921185" lon="8.719599">
        <ele>834.718064</ele>
        <time>2022-09-13T12:50:45.025Z</time>
      </trkpt>
      <trkpt lat="45.920679" lon="8.720373">
        <ele>844.658170</ele>
        <time>2022-09-13T12:51:44.283Z</time>
      </trkpt>
      <trkpt lat="45.920614" lon="8.720537">
        <ele>846.403294</ele>
        <time>2022-09-13T12:51:54.880Z</time>
      </trkpt>
      <trkpt lat="45.920535" lon="8.720880">
        <ele>849.743865</ele>
        <time>2022-09-13T12:52:13.713Z</time>
      </trkpt>
      <trkpt lat="45.920837" lon="8.721996">
        <ele>860.815242</ele>
        <time>2022-09-13T12:53:11.997Z</time>
      </trkpt>
      <trkpt lat="45.920759" lon="8.722361">
        <ele>864.345550</ele>
        <time>2022-09-13T12:53:26.806Z</time>
      </trkpt>
      <trkpt lat="45.920463" lon="8.722889">
        <ele>869.134698</ele>
        <time>2022-09-13T12:53:49.607Z</time>
      </trkpt>
      <trkpt lat="45.920209" lon="8.723265">
        <ele>872.156757</ele>
        <time>2022-09-13T12:54:06.911Z</time>
      </trkpt>
      <trkpt lat="45.920054" lon="8.723445">
        <ele>873.808365</ele>
        <time>2022-09-13T12:54:15.924Z</time>
      </trkpt>
      <trkpt lat="45.919676" lon="8.724021">
        <ele>878.374269</ele>
        <time>2022-09-13T12:54:42.738Z</time>
      </trkpt>
      <trkpt lat="45.919508" lon="8.724220">
        <ele>880.178634</ele>
        <time>2022-09-13T12:54:53.217Z</time>
      </trkpt>
      <trkpt lat="45.919353" lon="8.724472">
        <ele>882.172172</ele>
        <time>2022-09-13T12:55:07.494Z</time>
      </trkpt>
      <trkpt lat="45.919693" lon="8.724208">
        <ele>885.702214</ele>
        <time>2022-09-13T12:55:29.879Z</time>
      </trkpt>
      <trkpt lat="45.919911" lon="8.724077">
        <ele>887.860639</ele>
        <time>2022-09-13T12:55:43.963Z</time>
      </trkpt>
      <trkpt lat="45.920712" lon="8.723116">
        <ele>897.391388</ele>
        <time>2022-09-13T12:56:41.785Z</time>
      </trkpt>
      <trkpt lat="45.920985" lon="8.722855">
        <ele>898.926672</ele>
        <time>2022-09-13T12:56:55.388Z</time>
      </trkpt>
      <trkpt lat="45.921215" lon="8.722682">
        <ele>899.834968</ele>
        <time>2022-09-13T12:57:05.447Z</time>
      </trkpt>
      <trkpt lat="45.921369" lon="8.722489">
        <ele>900.549852</ele>
        <time>2022-09-13T12:57:13.161Z</time>
      </trkpt>
      <trkpt lat="45.921445" lon="8.722326">
        <ele>901.027486</ele>
        <time>2022-09-13T12:57:18.505Z</time>
      </trkpt>
      <trkpt lat="45.921493" lon="8.721875">
        <ele>902.138037</ele>
        <time>2022-09-13T12:57:30.255Z</time>
      </trkpt>
      <trkpt lat="45.921420" lon="8.721352">
        <ele>903.436442</ele>
        <time>2022-09-13T12:57:43.824Z</time>
      </trkpt>
      <trkpt lat="45.921373" lon="8.721188">
        <ele>903.868182</ele>
        <time>2022-09-13T12:57:48.321Z</time>
      </trkpt>
      <trkpt lat="45.921386" lon="8.721042">
        <ele>904.226460</ele>
        <time>2022-09-13T12:57:52.079Z</time>
      </trkpt>
      <trkpt lat="45.921582" lon="8.720682">
        <ele>905.918266</ele>
        <time>2022-09-13T12:58:04.007Z</time>
      </trkpt>
      <trkpt lat="45.921822" lon="8.720403">
        <ele>907.608251</ele>
        <time>2022-09-13T12:58:16.424Z</time>
      </trkpt>
      <trkpt lat="45.921904" lon="8.720218">
        <ele>908.443767</ele>
        <time>2022-09-13T12:58:22.926Z</time>
      </trkpt>
      <trkpt lat="45.922069" lon="8.720021">
        <ele>909.618153</ele>
        <time>2022-09-13T12:58:31.981Z</time>
      </trkpt>
      <trkpt lat="45.922336" lon="8.719607">
        <ele>911.768412</ele>
        <time>2022-09-13T12:58:50.780Z</time>
      </trkpt>
      <trkpt lat="45.922379" lon="8.719631">
        <ele>912.020973</ele>
        <time>2022-09-13T12:58:53.319Z</time>
      </trkpt>
      <trkpt lat="45.922524" lon="8.720009">
        <ele>913.665087</ele>
        <time>2022-09-13T12:59:08.144Z</time>
      </trkpt>
      <trkpt lat="45.922652" lon="8.720234">
        <ele>915.350867</ele>
        <time>2022-09-13T12:59:18.668Z</time>
      </trkpt>
      <trkpt lat="45.922755" lon="8.720389">
        <ele>916.941760</ele>
        <time>2022-09-13T12:59:25.612Z</time>
      </trkpt>
      <trkpt lat="45.922925" lon="8.720548">
        <ele>919.105590</ele>
        <time>2022-09-13T12:59:35.193Z</time>
      </trkpt>
      <trkpt lat="45.923008" lon="8.720734">
        <ele>920.745635</ele>
        <time>2022-09-13T12:59:41.837Z</time>
      </trkpt>
      <trkpt lat="45.923172" lon="8.721205">
        <ele>924.654690</ele>
        <time>2022-09-13T13:00:00.121Z</time>
      </trkpt>
      <trkpt lat="45.923355" lon="8.721635">
        <ele>928.395863</ele>
        <time>2022-09-13T13:00:25.614Z</time>
      </trkpt>
      <trkpt lat="45.923403" lon="8.721814">
        <ele>929.819621</ele>
        <time>2022-09-13T13:00:34.812Z</time>
      </trkpt>
      <trkpt lat="45.923416" lon="8.722115">
        <ele>932.057824</ele>
        <time>2022-09-13T13:00:49.685Z</time>
      </trkpt>
      <trkpt lat="45.923556" lon="8.722450">
        <ele>935.690214</ele>
        <time>2022-09-13T13:01:08.382Z</time>
      </trkpt>
      <trkpt lat="45.923797" lon="8.722651">
        <ele>940.017399</ele>
        <time>2022-09-13T13:01:27.828Z</time>
      </trkpt>
      <trkpt lat="45.923951" lon="8.722704">
        <ele>942.476703</ele>
        <time>2022-09-13T13:01:39.191Z</time>
      </trkpt>
      <trkpt lat="45.924344" lon="8.722792">
        <ele>948.653848</ele>
        <time>2022-09-13T13:02:05.703Z</time>
      </trkpt>
      <trkpt lat="45.924657" lon="8.722744">
        <ele>953.542525</ele>
        <time>2022-09-13T13:02:26.892Z</time>
      </trkpt>
      <trkpt lat="45.924788" lon="8.722783">
        <ele>955.620209</ele>
        <time>2022-09-13T13:02:37.073Z</time>
      </trkpt>
      <trkpt lat="45.925620" lon="8.723656">
        <ele>970.279131</ele>
        <time>2022-09-13T13:03:58.970Z</time>
      </trkpt>
      <trkpt lat="45.925691" lon="8.723774">
        <ele>971.746293</ele>
        <time>2022-09-13T13:04:05.197Z</time>
      </trkpt>
      <trkpt lat="45.925987" lon="8.724480">
        <ele>979.497947</ele>
        <time>2022-09-13T13:04:36.885Z</time>
      </trkpt>
      <trkpt lat="45.926028" lon="8.724668">
        <ele>981.350669</ele>
        <time>2022-09-13T13:04:44.038Z</time>
      </trkpt>
      <trkpt lat="45.926133" lon="8.724754">
        <ele>982.984357</ele>
        <time>2022-09-13T13:04:50.974Z</time>
      </trkpt>
      <trkpt lat="45.926531" lon="8.724697">
        <ele>987.058302</ele>
        <time>2022-09-13T13:05:11.843Z</time>
      </trkpt>
      <trkpt lat="45.926760" lon="8.724743">
        <ele>988.690416</ele>
        <time>2022-09-13T13:05:23.648Z</time>
      </trkpt>
      <trkpt lat="45.927185" lon="8.725060">
        <ele>992.070019</ele>
        <time>2022-09-13T13:05:47.312Z</time>
      </trkpt>
      <trkpt lat="45.927263" lon="8.725172">
        <ele>992.848162</ele>
        <time>2022-09-13T13:05:51.848Z</time>
      </trkpt>
      <trkpt lat="45.927413" lon="8.725864">
        <ele>996.406849</ele>
        <time>2022-09-13T13:06:11.109Z</time>
      </trkpt>
      <trkpt lat="45.927416" lon="8.726325">
        <ele>998.463683</ele>
        <time>2022-09-13T13:06:21.677Z</time>
      </trkpt>
      <trkpt lat="45.927549" lon="8.726955">
        <ele>999.904550</ele>
        <time>2022-09-13T13:06:36.020Z</time>
      </trkpt>
      <trkpt lat="45.927644" lon="8.727699">
        <ele>1001.560007</ele>
        <time>2022-09-13T13:06:52.808Z</time>
      </trkpt>
      <trkpt lat="45.927740" lon="8.728146">
        <ele>1002.583838</ele>
        <time>2022-09-13T13:07:03.859Z</time>
      </trkpt>
      <trkpt lat="45.927702" lon="8.728506">
        <ele>1003.380719</ele>
        <time>2022-09-13T13:07:12.518Z</time>
      </trkpt>
      <trkpt lat="45.927711" lon="8.728820">
        <ele>1004.221352</ele>
        <time>2022-09-13T13:07:19.956Z</time>
      </trkpt>
      <trkpt lat="45.927650" lon="8.729168">
        <ele>1006.080454</ele>
        <time>2022-09-13T13:07:28.263Z</time>
      </trkpt>
      <trkpt lat="45.927703" lon="8.729325">
        <ele>1006.984484</ele>
        <time>2022-09-13T13:07:32.834Z</time>
      </trkpt>
      <trkpt lat="45.927788" lon="8.729401">
        <ele>1007.729969</ele>
        <time>2022-09-13T13:07:36.451Z</time>
      </trkpt>
      <trkpt lat="45.928042" lon="8.729369">
        <ele>1009.628905</ele>
        <time>2022-09-13T13:07:51.458Z</time>
      </trkpt>
      <trkpt lat="45.928191" lon="8.729391">
        <ele>1010.744432</ele>
        <time>2022-09-13T13:07:56.735Z</time>
      </trkpt>
      <trkpt lat="45.928366" lon="8.729480">
        <ele>1012.126901</ele>
        <time>2022-09-13T13:08:09.485Z</time>
      </trkpt>
      <trkpt lat="45.928795" lon="8.729427">
        <ele>1015.333690</ele>
        <time>2022-09-13T13:08:29.329Z</time>
      </trkpt>
      <trkpt lat="45.928952" lon="8.729326">
        <ele>1016.614679</ele>
        <time>2022-09-13T13:08:35.566Z</time>
      </trkpt>
      <trkpt lat="45.929206" lon="8.729240">
        <ele>1018.172484</ele>
        <time>2022-09-13T13:08:48.417Z</time>
      </trkpt>
      <trkpt lat="45.929289" lon="8.729260">
        <ele>1018.598821</ele>
        <time>2022-09-13T13:08:51.046Z</time>
      </trkpt>
      <trkpt lat="45.929355" lon="8.729332">
        <ele>1019.018528</ele>
        <time>2022-09-13T13:08:58.889Z</time>
      </trkpt>
      <trkpt lat="45.929434" lon="8.729525">
        <ele>1019.807600</ele>
        <time>2022-09-13T13:09:03.709Z</time>
      </trkpt>
      <trkpt lat="45.929592" lon="8.730134">
        <ele>1022.097875</ele>
        <time>2022-09-13T13:09:20.249Z</time>
      </trkpt>
      <trkpt lat="45.929668" lon="8.730700">
        <ele>1024.129035</ele>
        <time>2022-09-13T13:09:34.324Z</time>
      </trkpt>
      <trkpt lat="45.929659" lon="8.731269">
        <ele>1026.134459</ele>
        <time>2022-09-13T13:09:51.490Z</time>
      </trkpt>
      <trkpt lat="45.929689" lon="8.731419">
        <ele>1026.636024</ele>
        <time>2022-09-13T13:09:55.676Z</time>
      </trkpt>
      <trkpt lat="45.929728" lon="8.731770">
        <ele>1027.613495</ele>
        <time>2022-09-13T13:10:04.545Z</time>
      </trkpt>
      <trkpt lat="45.929769" lon="8.731964">
        <ele>1028.171069</ele>
        <time>2022-09-13T13:10:09.247Z</time>
      </trkpt>
      <trkpt lat="45.929728" lon="8.731770">
        <ele>1028.728643</ele>
        <time>2022-09-13T13:10:14.428Z</time>
      </trkpt>
      <trkpt lat="45.929689" lon="8.731419">
        <ele>1029.706115</ele>
        <time>2022-09-13T13:10:23.335Z</time>
      </trkpt>
      <trkpt lat="45.929659" lon="8.731269">
        <ele>1030.135323</ele>
        <time>2022-09-13T13:10:27.655Z</time>
      </trkpt>
      <trkpt lat="45.929668" lon="8.730700">
        <ele>1031.700451</ele>
        <time>2022-09-13T13:10:42.384Z</time>
      </trkpt>
      <trkpt lat="45.929592" lon="8.730134">
        <ele>1033.285665</ele>
        <time>2022-09-13T13:11:01.598Z</time>
      </trkpt>
      <trkpt lat="45.929434" lon="8.729525">
        <ele>1039.271315</ele>
        <time>2022-09-13T13:11:21.476Z</time>
      </trkpt>
      <trkpt lat="45.929641" lon="8.729714">
        <ele>1042.958253</ele>
        <time>2022-09-13T13:11:38.964Z</time>
      </trkpt>
      <trkpt lat="45.929739" lon="8.729910">
        <ele>1045.482652</ele>
        <time>2022-09-13T13:11:47.453Z</time>
      </trkpt>
      <trkpt lat="45.929978" lon="8.730260">
        <ele>1050.612036</ele>
        <time>2022-09-13T13:12:13.244Z</time>
      </trkpt>
      <trkpt lat="45.929923" lon="8.729930">
        <ele>1054.160807</ele>
        <time>2022-09-13T13:12:36.584Z</time>
      </trkpt>
      <trkpt lat="45.929829" lon="8.729745">
        <ele>1056.556759</ele>
        <time>2022-09-13T13:12:48.325Z</time>
      </trkpt>
      <trkpt lat="45.929816" lon="8.729549">
        <ele>1058.615791</ele>
        <time>2022-09-13T13:13:01.901Z</time>
      </trkpt>
      <trkpt lat="45.929826" lon="8.729314">
        <ele>1061.250249</ele>
        <time>2022-09-13T13:13:16.151Z</time>
      </trkpt>
      <trkpt lat="45.929962" lon="8.728503">
        <ele>1073.248702</ele>
        <time>2022-09-13T13:14:13.139Z</time>
      </trkpt>
      <trkpt lat="45.929953" lon="8.728163">
        <ele>1078.142294</ele>
        <time>2022-09-13T13:14:34.955Z</time>
      </trkpt>
      <trkpt lat="45.929888" lon="8.727796">
        <ele>1083.589119</ele>
        <time>2022-09-13T13:15:00.981Z</time>
      </trkpt>
      <trkpt lat="45.929673" lon="8.727284">
        <ele>1092.190974</ele>
        <time>2022-09-13T13:15:36.372Z</time>
      </trkpt>
      <trkpt lat="45.929535" lon="8.727173">
        <ele>1095.460798</ele>
        <time>2022-09-13T13:15:49.350Z</time>
      </trkpt>
      <trkpt lat="45.929494" lon="8.727091">
        <ele>1096.913281</ele>
        <time>2022-09-13T13:15:55.439Z</time>
      </trkpt>
      <trkpt lat="45.929093" lon="8.726819">
        <ele>1104.707384</ele>
        <time>2022-09-13T13:16:34.645Z</time>
      </trkpt>
      <trkpt lat="45.929099" lon="8.726626">
        <ele>1107.024239</ele>
        <time>2022-09-13T13:16:46.129Z</time>
      </trkpt>
      <trkpt lat="45.929237" lon="8.726462">
        <ele>1110.111227</ele>
        <time>2022-09-13T13:17:01.218Z</time>
      </trkpt>
      <trkpt lat="45.929423" lon="8.726169">
        <ele>1114.868455</ele>
        <time>2022-09-13T13:17:23.202Z</time>
      </trkpt>
      <trkpt lat="45.929395" lon="8.726058">
        <ele>1116.284449</ele>
        <time>2022-09-13T13:17:29.496Z</time>
      </trkpt>
      <trkpt lat="45.929421" lon="8.725915">
        <ele>1118.056984</ele>
        <time>2022-09-13T13:17:37.940Z</time>
      </trkpt>
      <trkpt lat="45.929484" lon="8.725886">
        <ele>1119.197529</ele>
        <time>2022-09-13T13:17:42.948Z</time>
      </trkpt>
      <trkpt lat="45.929525" lon="8.725752">
        <ele>1120.953120</ele>
        <time>2022-09-13T13:17:50.438Z</time>
      </trkpt>
      <trkpt lat="45.929574" lon="8.725269">
        <ele>1126.806717</ele>
        <time>2022-09-13T13:18:17.061Z</time>
      </trkpt>
      <trkpt lat="45.929538" lon="8.724134">
        <ele>1133.464940</ele>
        <time>2022-09-13T13:19:12.700Z</time>
      </trkpt>
      <trkpt lat="45.929493" lon="8.724003">
        <ele>1134.165493</ele>
        <time>2022-09-13T13:19:18.719Z</time>
      </trkpt>
      <trkpt lat="45.929400" lon="8.723919">
        <ele>1134.922624</ele>
        <time>2022-09-13T13:19:24.553Z</time>
      </trkpt>
      <trkpt lat="45.929273" lon="8.723563">
        <ele>1136.841022</ele>
        <time>2022-09-13T13:19:37.160Z</time>
      </trkpt>
      <trkpt lat="45.929271" lon="8.723048">
        <ele>1139.310420</ele>
        <time>2022-09-13T13:19:50.533Z</time>
      </trkpt>
      <trkpt lat="45.929273" lon="8.723563">
        <ele>1140.273277</ele>
        <time>2022-09-13T13:20:02.088Z</time>
      </trkpt>
      <trkpt lat="45.929400" lon="8.723919">
        <ele>1137.003402</ele>
        <time>2022-09-13T13:20:09.824Z</time>
      </trkpt>
      <trkpt lat="45.929493" lon="8.724003">
        <ele>1135.712886</ele>
        <time>2022-09-13T13:20:12.700Z</time>
      </trkpt>
      <trkpt lat="45.929538" lon="8.724134">
        <ele>1134.518805</ele>
        <time>2022-09-13T13:20:15.288Z</time>
      </trkpt>
      <trkpt lat="45.929574" lon="8.725269">
        <ele>1125.233116</ele>
        <time>2022-09-13T13:20:34.608Z</time>
      </trkpt>
      <trkpt lat="45.929525" lon="8.725752">
        <ele>1121.243919</ele>
        <time>2022-09-13T13:20:42.728Z</time>
      </trkpt>
      <trkpt lat="45.929484" lon="8.725886">
        <ele>1120.023629</ele>
        <time>2022-09-13T13:20:45.197Z</time>
      </trkpt>
      <trkpt lat="45.929421" lon="8.725915">
        <ele>1118.793205</ele>
        <time>2022-09-13T13:20:46.781Z</time>
      </trkpt>
      <trkpt lat="45.929395" lon="8.726058">
        <ele>1116.880987</ele>
        <time>2022-09-13T13:20:49.232Z</time>
      </trkpt>
      <trkpt lat="45.929423" lon="8.726169">
        <ele>1115.353407</ele>
        <time>2022-09-13T13:20:51.212Z</time>
      </trkpt>
      <trkpt lat="45.929237" lon="8.726462">
        <ele>1110.221291</ele>
        <time>2022-09-13T13:20:57.813Z</time>
      </trkpt>
      <trkpt lat="45.929099" lon="8.726626">
        <ele>1106.891037</ele>
        <time>2022-09-13T13:21:02.041Z</time>
      </trkpt>
      <trkpt lat="45.929093" lon="8.726819">
        <ele>1104.391605</ele>
        <time>2022-09-13T13:21:05.231Z</time>
      </trkpt>
      <trkpt lat="45.929494" lon="8.727091">
        <ele>1096.144382</ele>
        <time>2022-09-13T13:21:15.672Z</time>
      </trkpt>
      <trkpt lat="45.929535" lon="8.727173">
        <ele>1094.837850</ele>
        <time>2022-09-13T13:21:17.319Z</time>
      </trkpt>
      <trkpt lat="45.929673" lon="8.727284">
        <ele>1091.896588</ele>
        <time>2022-09-13T13:21:21.067Z</time>
      </trkpt>
      <trkpt lat="45.929888" lon="8.727796">
        <ele>1083.807906</ele>
        <time>2022-09-13T13:21:30.898Z</time>
      </trkpt>
      <trkpt lat="45.929953" lon="8.728163">
        <ele>1078.212877</ele>
        <time>2022-09-13T13:21:37.014Z</time>
      </trkpt>
      <trkpt lat="45.929962" lon="8.728503">
        <ele>1073.186134</ele>
        <time>2022-09-13T13:21:42.524Z</time>
      </trkpt>
      <trkpt lat="45.929826" lon="8.729314">
        <ele>1060.861212</ele>
        <time>2022-09-13T13:21:56.013Z</time>
      </trkpt>
      <trkpt lat="45.929816" lon="8.729549">
        <ele>1057.382858</ele>
        <time>2022-09-13T13:21:59.817Z</time>
      </trkpt>
      <trkpt lat="45.929829" lon="8.729745">
        <ele>1054.474042</ele>
        <time>2022-09-13T13:22:03.014Z</time>
      </trkpt>
      <trkpt lat="45.929923" lon="8.729930">
        <ele>1051.089255</ele>
        <time>2022-09-13T13:22:06.783Z</time>
      </trkpt>
      <trkpt lat="45.929978" lon="8.730260">
        <ele>1047.318388</ele>
        <time>2022-09-13T13:22:12.326Z</time>
      </trkpt>
      <trkpt lat="45.929967" lon="8.730493">
        <ele>1045.690725</ele>
        <time>2022-09-13T13:22:16.281Z</time>
      </trkpt>
      <trkpt lat="45.929923" lon="8.730746">
        <ele>1043.873119</ele>
        <time>2022-09-13T13:22:20.768Z</time>
      </trkpt>
      <trkpt lat="45.929865" lon="8.730960">
        <ele>1042.272379</ele>
        <time>2022-09-13T13:22:24.974Z</time>
      </trkpt>
      <trkpt lat="45.929769" lon="8.731167">
        <ele>1040.538359</ele>
        <time>2022-09-13T13:22:29.371Z</time>
      </trkpt>
      <trkpt lat="45.929689" lon="8.731419">
        <ele>1038.607706</ele>
        <time>2022-09-13T13:22:34.652Z</time>
      </trkpt>
      <trkpt lat="45.929728" lon="8.731770">
        <ele>1036.130333</ele>
        <time>2022-09-13T13:22:41.370Z</time>
      </trkpt>
      <trkpt lat="45.929769" lon="8.731964">
        <ele>1034.717178</ele>
        <time>2022-09-13T13:22:45.187Z</time>
      </trkpt>
      <trkpt lat="45.929786" lon="8.732044">
        <ele>1034.134163</ele>
        <time>2022-09-13T13:22:46.748Z</time>
      </trkpt>
      <trkpt lat="45.929779" lon="8.732242">
        <ele>1032.752388</ele>
        <time>2022-09-13T13:22:50.311Z</time>
      </trkpt>
      <trkpt lat="45.929727" lon="8.732462">
        <ele>1031.132943</ele>
        <time>2022-09-13T13:22:54.920Z</time>
      </trkpt>
      <trkpt lat="45.929678" lon="8.733146">
        <ele>1027.755116</ele>
        <time>2022-09-13T13:23:10.526Z</time>
      </trkpt>
      <trkpt lat="45.929747" lon="8.733548">
        <ele>1025.873746</ele>
        <time>2022-09-13T13:23:18.683Z</time>
      </trkpt>
      <trkpt lat="45.929734" lon="8.733887">
        <ele>1024.331086</ele>
        <time>2022-09-13T13:23:25.508Z</time>
      </trkpt>
      <trkpt lat="45.929587" lon="8.734291">
        <ele>1022.259411</ele>
        <time>2022-09-13T13:23:34.260Z</time>
      </trkpt>
      <trkpt lat="45.929546" lon="8.734713">
        <ele>1020.323340</ele>
        <time>2022-09-13T13:23:42.237Z</time>
      </trkpt>
      <trkpt lat="45.929561" lon="8.734903">
        <ele>1019.454488</ele>
        <time>2022-09-13T13:23:45.766Z</time>
      </trkpt>
      <trkpt lat="45.929523" lon="8.735099">
        <ele>1018.394572</ele>
        <time>2022-09-13T13:23:49.434Z</time>
      </trkpt>
      <trkpt lat="45.929367" lon="8.735429">
        <ele>1014.615283</ele>
        <time>2022-09-13T13:23:56.655Z</time>
      </trkpt>
      <trkpt lat="45.929163" lon="8.735563">
        <ele>1011.561028</ele>
        <time>2022-09-13T13:24:02.335Z</time>
      </trkpt>
      <trkpt lat="45.928995" lon="8.735622">
        <ele>1009.205961</ele>
        <time>2022-09-13T13:24:06.566Z</time>
      </trkpt>
      <trkpt lat="45.928932" lon="8.735678">
        <ele>1008.197304</ele>
        <time>2022-09-13T13:24:08.433Z</time>
      </trkpt>
      <trkpt lat="45.928915" lon="8.735751">
        <ele>1007.468129</ele>
        <time>2022-09-13T13:24:09.698Z</time>
      </trkpt>
      <trkpt lat="45.928939" lon="8.735922">
        <ele>1005.815787</ele>
        <time>2022-09-13T13:24:12.567Z</time>
      </trkpt>
      <trkpt lat="45.929109" lon="8.736445">
        <ele>1000.347740</ele>
        <time>2022-09-13T13:24:22.185Z</time>
      </trkpt>
      <trkpt lat="45.929100" lon="8.736593">
        <ele>998.940554</ele>
        <time>2022-09-13T13:24:24.813Z</time>
      </trkpt>
      <trkpt lat="45.928842" lon="8.736861">
        <ele>994.606056</ele>
        <time>2022-09-13T13:24:32.484Z</time>
      </trkpt>
      <trkpt lat="45.928857" lon="8.736942">
        <ele>994.031569</ele>
        <time>2022-09-13T13:24:34.180Z</time>
      </trkpt>
      <trkpt lat="45.929154" lon="8.737309">
        <ele>992.052038</ele>
        <time>2022-09-13T13:24:44.067Z</time>
      </trkpt>
      <trkpt lat="45.929161" lon="8.737408">
        <ele>991.702184</ele>
        <time>2022-09-13T13:24:45.706Z</time>
      </trkpt>
      <trkpt lat="45.929130" lon="8.737577">
        <ele>991.087706</ele>
        <time>2022-09-13T13:24:49.162Z</time>
      </trkpt>
      <trkpt lat="45.929076" lon="8.737660">
        <ele>990.688138</ele>
        <time>2022-09-13T13:24:51.359Z</time>
      </trkpt>
      <trkpt lat="45.928549" lon="8.737867">
        <ele>987.926705</ele>
        <time>2022-09-13T13:25:06.979Z</time>
      </trkpt>
      <trkpt lat="45.928518" lon="8.737929">
        <ele>987.658250</ele>
        <time>2022-09-13T13:25:09.297Z</time>
      </trkpt>
      <trkpt lat="45.928419" lon="8.738508">
        <ele>985.561997</ele>
        <time>2022-09-13T13:25:24.057Z</time>
      </trkpt>
      <trkpt lat="45.928266" lon="8.738862">
        <ele>987.993254</ele>
        <time>2022-09-13T13:25:35.059Z</time>
      </trkpt>
      <trkpt lat="45.928270" lon="8.739276">
        <ele>992.367824</ele>
        <time>2022-09-13T13:25:50.259Z</time>
      </trkpt>
      <trkpt lat="45.928306" lon="8.739312">
        <ele>993.033940</ele>
        <time>2022-09-13T13:25:54.334Z</time>
      </trkpt>
      <trkpt lat="45.928321" lon="8.739477">
        <ele>994.792085</ele>
        <time>2022-09-13T13:26:00.851Z</time>
      </trkpt>
      <trkpt lat="45.928301" lon="8.739701">
        <ele>997.178191</ele>
        <time>2022-09-13T13:26:08.739Z</time>
      </trkpt>
      <trkpt lat="45.928215" lon="8.740156">
        <ele>1002.159861</ele>
        <time>2022-09-13T13:26:30.862Z</time>
      </trkpt>
      <trkpt lat="45.928066" lon="8.741498">
        <ele>1017.678055</ele>
        <time>2022-09-13T13:27:56.154Z</time>
      </trkpt>
      <trkpt lat="45.928188" lon="8.742232">
        <ele>1027.891875</ele>
        <time>2022-09-13T13:28:40.070Z</time>
      </trkpt>
      <trkpt lat="45.927905" lon="8.742634">
        <ele>1035.632988</ele>
        <time>2022-09-13T13:29:11.030Z</time>
      </trkpt>
      <trkpt lat="45.927435" lon="8.743189">
        <ele>1047.414889</ele>
        <time>2022-09-13T13:29:55.798Z</time>
      </trkpt>
      <trkpt lat="45.927246" lon="8.743332">
        <ele>1048.778120</ele>
        <time>2022-09-13T13:30:09.444Z</time>
      </trkpt>
      <trkpt lat="45.926772" lon="8.743526">
        <ele>1051.923823</ele>
        <time>2022-09-13T13:30:36.633Z</time>
      </trkpt>
      <trkpt lat="45.926666" lon="8.743633">
        <ele>1052.750533</ele>
        <time>2022-09-13T13:30:41.570Z</time>
      </trkpt>
      <trkpt lat="45.926532" lon="8.743829">
        <ele>1053.970698</ele>
        <time>2022-09-13T13:30:50.016Z</time>
      </trkpt>
      <trkpt lat="45.926260" lon="8.744164">
        <ele>1056.256826</ele>
        <time>2022-09-13T13:31:00.396Z</time>
      </trkpt>
      <trkpt lat="45.926532" lon="8.743829">
        <ele>1058.542955</ele>
        <time>2022-09-13T13:31:06.564Z</time>
      </trkpt>
      <trkpt lat="45.926666" lon="8.743633">
        <ele>1057.687876</ele>
        <time>2022-09-13T13:31:09.354Z</time>
      </trkpt>
      <trkpt lat="45.926772" lon="8.743526">
        <ele>1056.594367</ele>
        <time>2022-09-13T13:31:11.645Z</time>
      </trkpt>
      <trkpt lat="45.927246" lon="8.743332">
        <ele>1052.433468</ele>
        <time>2022-09-13T13:31:19.119Z</time>
      </trkpt>
      <trkpt lat="45.927435" lon="8.743189">
        <ele>1050.630290</ele>
        <time>2022-09-13T13:31:22.290Z</time>
      </trkpt>
      <trkpt lat="45.927905" lon="8.742634">
        <ele>1045.495246</ele>
        <time>2022-09-13T13:31:30.949Z</time>
      </trkpt>
      <trkpt lat="45.928044" lon="8.742649">
        <ele>1044.318395</ele>
        <time>2022-09-13T13:31:32.899Z</time>
      </trkpt>
      <trkpt lat="45.928204" lon="8.742591">
        <ele>1042.322403</ele>
        <time>2022-09-13T13:31:35.201Z</time>
      </trkpt>
      <trkpt lat="45.928340" lon="8.742497">
        <ele>1040.036187</ele>
        <time>2022-09-13T13:31:37.332Z</time>
      </trkpt>
      <trkpt lat="45.928438" lon="8.742615">
        <ele>1038.099502</ele>
        <time>2022-09-13T13:31:39.314Z</time>
      </trkpt>
      <trkpt lat="45.928340" lon="8.742497">
        <ele>1036.162817</ele>
        <time>2022-09-13T13:31:41.302Z</time>
      </trkpt>
      <trkpt lat="45.928204" lon="8.742591">
        <ele>1033.876601</ele>
        <time>2022-09-13T13:31:43.364Z</time>
      </trkpt>
      <trkpt lat="45.928044" lon="8.742649">
        <ele>1031.376651</ele>
        <time>2022-09-13T13:31:45.605Z</time>
      </trkpt>
      <trkpt lat="45.927905" lon="8.742634">
        <ele>1029.264805</ele>
        <time>2022-09-13T13:31:47.509Z</time>
      </trkpt>
      <trkpt lat="45.928188" lon="8.742232">
        <ele>1023.237377</ele>
        <time>2022-09-13T13:31:52.919Z</time>
      </trkpt>
      <trkpt lat="45.928066" lon="8.741498">
        <ele>1015.210862</ele>
        <time>2022-09-13T13:32:00.085Z</time>
      </trkpt>
      <trkpt lat="45.928215" lon="8.740156">
        <ele>999.970231</ele>
        <time>2022-09-13T13:32:12.627Z</time>
      </trkpt>
      <trkpt lat="45.928301" lon="8.739701">
        <ele>994.682521</ele>
        <time>2022-09-13T13:32:17.088Z</time>
      </trkpt>
      <trkpt lat="45.928321" lon="8.739477">
        <ele>992.149828</ele>
        <time>2022-09-13T13:32:19.311Z</time>
      </trkpt>
      <trkpt lat="45.928306" lon="8.739312">
        <ele>990.283674</ele>
        <time>2022-09-13T13:32:20.930Z</time>
      </trkpt>
      <trkpt lat="45.928270" lon="8.739276">
        <ele>989.576636</ele>
        <time>2022-09-13T13:32:21.529Z</time>
      </trkpt>
      <trkpt lat="45.928266" lon="8.738862">
        <ele>987.667578</ele>
        <time>2022-09-13T13:32:29.087Z</time>
      </trkpt>
      <trkpt lat="45.928419" lon="8.738508">
        <ele>988.104659</ele>
        <time>2022-09-13T13:32:38.181Z</time>
      </trkpt>
      <trkpt lat="45.928518" lon="8.737929">
        <ele>988.729945</ele>
        <time>2022-09-13T13:32:52.948Z</time>
      </trkpt>
      <trkpt lat="45.928549" lon="8.737867">
        <ele>988.810022</ele>
        <time>2022-09-13T13:32:54.458Z</time>
      </trkpt>
      <trkpt lat="45.929076" lon="8.737660">
        <ele>989.633722</ele>
        <time>2022-09-13T13:33:17.612Z</time>
      </trkpt>
      <trkpt lat="45.929130" lon="8.737577">
        <ele>989.752908</ele>
        <time>2022-09-13T13:33:21.206Z</time>
      </trkpt>
      <trkpt lat="45.929161" lon="8.737408">
        <ele>989.936199</ele>
        <time>2022-09-13T13:33:26.453Z</time>
      </trkpt>
      <trkpt lat="45.929154" lon="8.737309">
        <ele>990.040556</ele>
        <time>2022-09-13T13:33:33.427Z</time>
      </trkpt>
      <trkpt lat="45.928857" lon="8.736942">
        <ele>994.530028</ele>
        <time>2022-09-13T13:33:57.242Z</time>
      </trkpt>
      <trkpt lat="45.928842" lon="8.736861">
        <ele>995.324059</ele>
        <time>2022-09-13T13:33:59.607Z</time>
      </trkpt>
      <trkpt lat="45.929100" lon="8.736593">
        <ele>999.658987</ele>
        <time>2022-09-13T13:34:23.543Z</time>
      </trkpt>
      <trkpt lat="45.929109" lon="8.736445">
        <ele>1001.066311</ele>
        <time>2022-09-13T13:34:29.577Z</time>
      </trkpt>
      <trkpt lat="45.928939" lon="8.735922">
        <ele>1006.534899</ele>
        <time>2022-09-13T13:35:01.008Z</time>
      </trkpt>
      <trkpt lat="45.928915" lon="8.735751">
        <ele>1008.187404</ele>
        <time>2022-09-13T13:35:11.671Z</time>
      </trkpt>
      <trkpt lat="45.928932" lon="8.735678">
        <ele>1008.916652</ele>
        <time>2022-09-13T13:35:17.050Z</time>
      </trkpt>
      <trkpt lat="45.928995" lon="8.735622">
        <ele>1009.925408</ele>
        <time>2022-09-13T13:35:21.703Z</time>
      </trkpt>
      <trkpt lat="45.929163" lon="8.735563">
        <ele>1012.280708</ele>
        <time>2022-09-13T13:35:33.795Z</time>
      </trkpt>
      <trkpt lat="45.929367" lon="8.735429">
        <ele>1015.022059</ele>
        <time>2022-09-13T13:35:47.085Z</time>
      </trkpt>
      <trkpt lat="45.929523" lon="8.735099">
        <ele>1017.094743</ele>
        <time>2022-09-13T13:36:02.266Z</time>
      </trkpt>
      <trkpt lat="45.929561" lon="8.734903">
        <ele>1018.151707</ele>
        <time>2022-09-13T13:36:09.988Z</time>
      </trkpt>
      <trkpt lat="45.929546" lon="8.734713">
        <ele>1019.145027</ele>
        <time>2022-09-13T13:36:16.846Z</time>
      </trkpt>
      <trkpt lat="45.929587" lon="8.734291">
        <ele>1021.358448</ele>
        <time>2022-09-13T13:36:31.243Z</time>
      </trkpt>
      <trkpt lat="45.929734" lon="8.733887">
        <ele>1023.726900</ele>
        <time>2022-09-13T13:36:45.961Z</time>
      </trkpt>
      <trkpt lat="45.929747" lon="8.733548">
        <ele>1025.490552</ele>
        <time>2022-09-13T13:36:55.734Z</time>
      </trkpt>
      <trkpt lat="45.929678" lon="8.733146">
        <ele>1027.641437</ele>
        <time>2022-09-13T13:37:07.682Z</time>
      </trkpt>
      <trkpt lat="45.929727" lon="8.732462">
        <ele>1026.449679</ele>
        <time>2022-09-13T13:37:25.602Z</time>
      </trkpt>
      <trkpt lat="45.929779" lon="8.732242">
        <ele>1025.824657</ele>
        <time>2022-09-13T13:37:31.533Z</time>
      </trkpt>
      <trkpt lat="45.929786" lon="8.732044">
        <ele>1025.291363</ele>
        <time>2022-09-13T13:37:36.598Z</time>
      </trkpt>
      <trkpt lat="45.929728" lon="8.731770">
        <ele>1024.520945</ele>
        <time>2022-09-13T13:37:43.812Z</time>
      </trkpt>
      <trkpt lat="45.929689" lon="8.731419">
        <ele>1023.564807</ele>
        <time>2022-09-13T13:37:52.652Z</time>
      </trkpt>
      <trkpt lat="45.929659" lon="8.731269">
        <ele>1023.144967</ele>
        <time>2022-09-13T13:37:55.279Z</time>
      </trkpt>
      <trkpt lat="45.929668" lon="8.730700">
        <ele>1021.613999</ele>
        <time>2022-09-13T13:38:05.197Z</time>
      </trkpt>
      <trkpt lat="45.929592" lon="8.730134">
        <ele>1015.683913</ele>
        <time>2022-09-13T13:38:12.760Z</time>
      </trkpt>
      <trkpt lat="45.929434" lon="8.729525">
        <ele>1006.680391</ele>
        <time>2022-09-13T13:38:21.042Z</time>
      </trkpt>
      <trkpt lat="45.929355" lon="8.729332">
        <ele>1003.578391</ele>
        <time>2022-09-13T13:38:24.011Z</time>
      </trkpt>
      <trkpt lat="45.929322" lon="8.729384">
        <ele>1002.603330</ele>
        <time>2022-09-13T13:38:25.305Z</time>
      </trkpt>
      <trkpt lat="45.929227" lon="8.729399">
        <ele>1000.700014</ele>
        <time>2022-09-13T13:38:27.595Z</time>
      </trkpt>
      <trkpt lat="45.928690" lon="8.729664">
        <ele>989.393124</ele>
        <time>2022-09-13T13:38:40.857Z</time>
      </trkpt>
      <trkpt lat="45.928120" lon="8.729792">
        <ele>976.465637</ele>
        <time>2022-09-13T13:38:54.331Z</time>
      </trkpt>
      <trkpt lat="45.927614" lon="8.729968">
        <ele>964.081389</ele>
        <time>2022-09-13T13:39:06.520Z</time>
      </trkpt>
      <trkpt lat="45.927225" lon="8.729980">
        <ele>954.825533</ele>
        <time>2022-09-13T13:39:15.551Z</time>
      </trkpt>
      <trkpt lat="45.927061" lon="8.730223">
        <ele>949.223094</ele>
        <time>2022-09-13T13:39:21.025Z</time>
      </trkpt>
      <trkpt lat="45.926968" lon="8.730162">
        <ele>946.791390</ele>
        <time>2022-09-13T13:39:23.405Z</time>
      </trkpt>
      <trkpt lat="45.926964" lon="8.729877">
        <ele>942.196124</ele>
        <time>2022-09-13T13:39:28.108Z</time>
      </trkpt>
      <trkpt lat="45.927048" lon="8.729482">
        <ele>937.262277</ele>
        <time>2022-09-13T13:39:34.901Z</time>
      </trkpt>
      <trkpt lat="45.927069" lon="8.728942">
        <ele>930.801928</ele>
        <time>2022-09-13T13:39:43.916Z</time>
      </trkpt>
      <trkpt lat="45.926985" lon="8.728384">
        <ele>923.982329</ele>
        <time>2022-09-13T13:39:53.588Z</time>
      </trkpt>
      <trkpt lat="45.926879" lon="8.728177">
        <ele>920.911928</ele>
        <time>2022-09-13T13:39:57.808Z</time>
      </trkpt>
      <trkpt lat="45.926723" lon="8.728074">
        <ele>917.963955</ele>
        <time>2022-09-13T13:40:02.118Z</time>
      </trkpt>
      <trkpt lat="45.926647" lon="8.727941">
        <ele>915.907913</ele>
        <time>2022-09-13T13:40:04.953Z</time>
      </trkpt>
      <trkpt lat="45.926613" lon="8.727716">
        <ele>913.157586</ele>
        <time>2022-09-13T13:40:08.832Z</time>
      </trkpt>
      <trkpt lat="45.926445" lon="8.727285">
        <ele>905.763391</ele>
        <time>2022-09-13T13:40:17.030Z</time>
      </trkpt>
      <trkpt lat="45.926364" lon="8.727613">
        <ele>900.185004</ele>
        <time>2022-09-13T13:40:22.765Z</time>
      </trkpt>
      <trkpt lat="45.926326" lon="8.728159">
        <ele>891.390464</ele>
        <time>2022-09-13T13:40:31.677Z</time>
      </trkpt>
      <trkpt lat="45.926288" lon="8.728347">
        <ele>888.252713</ele>
        <time>2022-09-13T13:40:34.858Z</time>
      </trkpt>
      <trkpt lat="45.926136" lon="8.728450">
        <ele>884.380866</ele>
        <time>2022-09-13T13:40:38.773Z</time>
      </trkpt>
      <trkpt lat="45.926069" lon="8.728614">
        <ele>881.332573</ele>
        <time>2022-09-13T13:40:41.860Z</time>
      </trkpt>
      <trkpt lat="45.926005" lon="8.728796">
        <ele>878.064045</ele>
        <time>2022-09-13T13:40:45.194Z</time>
      </trkpt>
      <trkpt lat="45.926018" lon="8.729015">
        <ele>874.541312</ele>
        <time>2022-09-13T13:40:48.746Z</time>
      </trkpt>
      <trkpt lat="45.925824" lon="8.729524">
        <ele>864.019787</ele>
        <time>2022-09-13T13:40:58.251Z</time>
      </trkpt>
      <trkpt lat="45.925823" lon="8.729872">
        <ele>857.066041</ele>
        <time>2022-09-13T13:41:03.927Z</time>
      </trkpt>
      <trkpt lat="45.925790" lon="8.730073">
        <ele>852.939327</ele>
        <time>2022-09-13T13:41:07.312Z</time>
      </trkpt>
      <trkpt lat="45.925677" lon="8.730305">
        <ele>847.280018</ele>
        <time>2022-09-13T13:41:11.951Z</time>
      </trkpt>
      <trkpt lat="45.925506" lon="8.730533">
        <ele>840.580306</ele>
        <time>2022-09-13T13:41:17.416Z</time>
      </trkpt>
      <trkpt lat="45.925477" lon="8.730824">
        <ele>834.706177</ele>
        <time>2022-09-13T13:41:22.220Z</time>
      </trkpt>
      <trkpt lat="45.925468" lon="8.731400">
        <ele>823.193649</ele>
        <time>2022-09-13T13:41:31.683Z</time>
      </trkpt>
      <trkpt lat="45.925351" lon="8.731408">
        <ele>819.828846</ele>
        <time>2022-09-13T13:41:34.435Z</time>
      </trkpt>
      <trkpt lat="45.925292" lon="8.731507">
        <ele>817.812909</ele>
        <time>2022-09-13T13:41:36.548Z</time>
      </trkpt>
      <trkpt lat="45.925283" lon="8.731563">
        <ele>817.189729</ele>
        <time>2022-09-13T13:41:37.478Z</time>
      </trkpt>
      <trkpt lat="45.925477" lon="8.731962">
        <ele>811.911453</ele>
        <time>2022-09-13T13:41:45.372Z</time>
      </trkpt>
      <trkpt lat="45.925459" lon="8.732073">
        <ele>810.675659</ele>
        <time>2022-09-13T13:41:47.231Z</time>
      </trkpt>
      <trkpt lat="45.925226" lon="8.732138">
        <ele>806.976033</ele>
        <time>2022-09-13T13:41:52.835Z</time>
      </trkpt>
      <trkpt lat="45.924936" lon="8.732133">
        <ele>802.455345</ele>
        <time>2022-09-13T13:41:59.777Z</time>
      </trkpt>
      <trkpt lat="45.924832" lon="8.732082">
        <ele>800.742530</ele>
        <time>2022-09-13T13:42:03.124Z</time>
      </trkpt>
      <trkpt lat="45.924643" lon="8.732320">
        <ele>796.826107</ele>
        <time>2022-09-13T13:42:09.349Z</time>
      </trkpt>
      <trkpt lat="45.924539" lon="8.732334">
        <ele>795.197920</ele>
        <time>2022-09-13T13:42:13.588Z</time>
      </trkpt>
      <trkpt lat="45.924521" lon="8.732377">
        <ele>794.653770</ele>
        <time>2022-09-13T13:42:14.781Z</time>
      </trkpt>
      <trkpt lat="45.924465" lon="8.732408">
        <ele>793.718393</ele>
        <time>2022-09-13T13:42:16.325Z</time>
      </trkpt>
      <trkpt lat="45.924456" lon="8.732388">
        <ele>793.460117</ele>
        <time>2022-09-13T13:42:16.762Z</time>
      </trkpt>
      <trkpt lat="45.924429" lon="8.732412">
        <ele>792.965303</ele>
        <time>2022-09-13T13:42:17.241Z</time>
      </trkpt>
      <trkpt lat="45.924409" lon="8.732496">
        <ele>792.002636</ele>
        <time>2022-09-13T13:42:18.262Z</time>
      </trkpt>
      <trkpt lat="45.924367" lon="8.732841">
        <ele>790.632248</ele>
        <time>2022-09-13T13:42:23.951Z</time>
      </trkpt>
      <trkpt lat="45.924269" lon="8.733047">
        <ele>790.819140</ele>
        <time>2022-09-13T13:42:26.860Z</time>
      </trkpt>
      <trkpt lat="45.924180" lon="8.733443">
        <ele>791.130784</ele>
        <time>2022-09-13T13:42:32.731Z</time>
      </trkpt>
      <trkpt lat="45.924361" lon="8.733778">
        <ele>791.448439</ele>
        <time>2022-09-13T13:42:42.839Z</time>
      </trkpt>
      <trkpt lat="45.924442" lon="8.733921">
        <ele>791.586539</ele>
        <time>2022-09-13T13:42:46.297Z</time>
      </trkpt>
      <trkpt lat="45.924603" lon="8.733949">
        <ele>791.761129</ele>
        <time>2022-09-13T13:42:53.833Z</time>
      </trkpt>
      <trkpt lat="45.924692" lon="8.734029">
        <ele>791.874130</ele>
        <time>2022-09-13T13:42:57.599Z</time>
      </trkpt>
      <trkpt lat="45.924741" lon="8.734410">
        <ele>792.164280</ele>
        <time>2022-09-13T13:43:13.051Z</time>
      </trkpt>
      <trkpt lat="45.924662" lon="8.734796">
        <ele>792.766296</ele>
        <time>2022-09-13T13:43:28.437Z</time>
      </trkpt>
      <trkpt lat="45.924347" lon="8.735523">
        <ele>796.992225</ele>
        <time>2022-09-13T13:44:00.161Z</time>
      </trkpt>
      <trkpt lat="45.924315" lon="8.735783">
        <ele>798.294979</ele>
        <time>2022-09-13T13:44:11.268Z</time>
      </trkpt>
      <trkpt lat="45.924239" lon="8.735968">
        <ele>799.355058</ele>
        <time>2022-09-13T13:44:17.642Z</time>
      </trkpt>
      <trkpt lat="45.924174" lon="8.735984">
        <ele>799.822813</ele>
        <time>2022-09-13T13:44:22.341Z</time>
      </trkpt>
      <trkpt lat="45.924081" lon="8.736007">
        <ele>800.492154</ele>
        <time>2022-09-13T13:44:26.224Z</time>
      </trkpt>
      <trkpt lat="45.923934" lon="8.736028">
        <ele>801.539962</ele>
        <time>2022-09-13T13:44:31.786Z</time>
      </trkpt>
      <trkpt lat="45.923873" lon="8.736026">
        <ele>801.972749</ele>
        <time>2022-09-13T13:44:34.606Z</time>
      </trkpt>
      <trkpt lat="45.923683" lon="8.736333">
        <ele>804.000224</ele>
        <time>2022-09-13T13:44:46.177Z</time>
      </trkpt>
      <trkpt lat="45.923386" lon="8.736518">
        <ele>805.634904</ele>
        <time>2022-09-13T13:44:59.564Z</time>
      </trkpt>
      <trkpt lat="45.923385" lon="8.736574">
        <ele>805.749072</ele>
        <time>2022-09-13T13:45:01.037Z</time>
      </trkpt>
      <trkpt lat="45.923402" lon="8.736627">
        <ele>805.868019</ele>
        <time>2022-09-13T13:45:02.651Z</time>
      </trkpt>
      <trkpt lat="45.923367" lon="8.736894">
        <ele>806.421756</ele>
        <time>2022-09-13T13:45:10.928Z</time>
      </trkpt>
      <trkpt lat="45.923080" lon="8.737419">
        <ele>807.782602</ele>
        <time>2022-09-13T13:45:28.435Z</time>
      </trkpt>
      <trkpt lat="45.922748" lon="8.737865">
        <ele>809.113915</ele>
        <time>2022-09-13T13:45:45.192Z</time>
      </trkpt>
      <trkpt lat="45.922580" lon="8.738229">
        <ele>810.004212</ele>
        <time>2022-09-13T13:45:56.305Z</time>
      </trkpt>
      <trkpt lat="45.922433" lon="8.738396">
        <ele>810.643436</ele>
        <time>2022-09-13T13:46:03.964Z</time>
      </trkpt>
      <trkpt lat="45.922279" lon="8.738515">
        <ele>811.561930</ele>
        <time>2022-09-13T13:46:10.199Z</time>
      </trkpt>
      <trkpt lat="45.922222" lon="8.738562">
        <ele>811.907135</ele>
        <time>2022-09-13T13:46:13.097Z</time>
      </trkpt>
      <trkpt lat="45.922106" lon="8.738776">
        <ele>812.898578</ele>
        <time>2022-09-13T13:46:19.988Z</time>
      </trkpt>
      <trkpt lat="45.921987" lon="8.739104">
        <ele>814.250463</ele>
        <time>2022-09-13T13:46:30.007Z</time>
      </trkpt>
      <trkpt lat="45.921940" lon="8.739315">
        <ele>815.060119</ele>
        <time>2022-09-13T13:46:35.700Z</time>
      </trkpt>
      <trkpt lat="45.921931" lon="8.739519">
        <ele>815.807124</ele>
        <time>2022-09-13T13:46:41.820Z</time>
      </trkpt>
      <trkpt lat="45.921770" lon="8.739865">
        <ele>817.328367</ele>
        <time>2022-09-13T13:46:54.305Z</time>
      </trkpt>
      <trkpt lat="45.921662" lon="8.739962">
        <ele>817.997367</ele>
        <time>2022-09-13T13:47:01.816Z</time>
      </trkpt>
      <trkpt lat="45.921556" lon="8.740139">
        <ele>818.850886</ele>
        <time>2022-09-13T13:47:09.725Z</time>
      </trkpt>
      <trkpt lat="45.921319" lon="8.741096">
        <ele>824.343845</ele>
        <time>2022-09-13T13:47:49.951Z</time>
      </trkpt>
      <trkpt lat="45.921194" lon="8.741510">
        <ele>827.091051</ele>
        <time>2022-09-13T13:48:07.546Z</time>
      </trkpt>
      <trkpt lat="45.921107" lon="8.742006">
        <ele>830.204770</ele>
        <time>2022-09-13T13:48:26.523Z</time>
      </trkpt>
      <trkpt lat="45.921124" lon="8.742431">
        <ele>832.796080</ele>
        <time>2022-09-13T13:48:39.482Z</time>
      </trkpt>
      <trkpt lat="45.921274" lon="8.742860">
        <ele>835.661160</ele>
        <time>2022-09-13T13:48:53.299Z</time>
      </trkpt>
      <trkpt lat="45.921722" lon="8.743493">
        <ele>837.708337</ele>
        <time>2022-09-13T13:49:14.788Z</time>
      </trkpt>
      <trkpt lat="45.921852" lon="8.743965">
        <ele>838.859196</ele>
        <time>2022-09-13T13:49:24.284Z</time>
      </trkpt>
      <trkpt lat="45.921921" lon="8.744377">
        <ele>839.819900</ele>
        <time>2022-09-13T13:49:30.816Z</time>
      </trkpt>
      <trkpt lat="45.921908" lon="8.744839">
        <ele>840.868125</ele>
        <time>2022-09-13T13:49:37.898Z</time>
      </trkpt>
      <trkpt lat="45.921949" lon="8.745156">
        <ele>841.595295</ele>
        <time>2022-09-13T13:49:43.700Z</time>
      </trkpt>
      <trkpt lat="45.922106" lon="8.745461">
        <ele>842.425915</ele>
        <time>2022-09-13T13:49:50.857Z</time>
      </trkpt>
      <trkpt lat="45.922327" lon="8.745545">
        <ele>843.145301</ele>
        <time>2022-09-13T13:49:57.954Z</time>
      </trkpt>
      <trkpt lat="45.922616" lon="8.745539">
        <ele>844.054878</ele>
        <time>2022-09-13T13:50:06.637Z</time>
      </trkpt>
      <trkpt lat="45.923108" lon="8.745474">
        <ele>845.609725</ele>
        <time>2022-09-13T13:50:20.580Z</time>
      </trkpt>
      <trkpt lat="45.923550" lon="8.745579">
        <ele>847.019562</ele>
        <time>2022-09-13T13:50:33.585Z</time>
      </trkpt>
      <trkpt lat="45.923710" lon="8.745696">
        <ele>847.831477</ele>
        <time>2022-09-13T13:50:39.717Z</time>
      </trkpt>
      <trkpt lat="45.924050" lon="8.746549">
        <ele>851.204078</ele>
        <time>2022-09-13T13:51:02.258Z</time>
      </trkpt>
      <trkpt lat="45.924292" lon="8.746825">
        <ele>852.727503</ele>
        <time>2022-09-13T13:51:13.491Z</time>
      </trkpt>
      <trkpt lat="45.924427" lon="8.746903">
        <ele>853.445036</ele>
        <time>2022-09-13T13:51:19.112Z</time>
      </trkpt>
      <trkpt lat="45.925222" lon="8.746772">
        <ele>856.071975</ele>
        <time>2022-09-13T13:51:45.098Z</time>
      </trkpt>
      <trkpt lat="45.925508" lon="8.746907">
        <ele>856.129035</ele>
        <time>2022-09-13T13:51:53.358Z</time>
      </trkpt>
      <trkpt lat="45.925750" lon="8.747073">
        <ele>856.179861</ele>
        <time>2022-09-13T13:52:00.155Z</time>
      </trkpt>
      <trkpt lat="45.925940" lon="8.747134">
        <ele>856.216763</ele>
        <time>2022-09-13T13:52:04.227Z</time>
      </trkpt>
      <trkpt lat="45.926075" lon="8.747264">
        <ele>856.247563</ele>
        <time>2022-09-13T13:52:07.790Z</time>
      </trkpt>
      <trkpt lat="45.926787" lon="8.747475">
        <ele>855.085104</ele>
        <time>2022-09-13T13:52:21.160Z</time>
      </trkpt>
      <trkpt lat="45.927627" lon="8.747903">
        <ele>846.533667</ele>
        <time>2022-09-13T13:52:34.317Z</time>
      </trkpt>
      <trkpt lat="45.928596" lon="8.748985">
        <ele>832.005858</ele>
        <time>2022-09-13T13:52:51.247Z</time>
      </trkpt>
      <trkpt lat="45.928611" lon="8.749047">
        <ele>831.289690</ele>
        <time>2022-09-13T13:52:51.891Z</time>
      </trkpt>
      <trkpt lat="45.928572" lon="8.749073">
        <ele>830.615398</ele>
        <time>2022-09-13T13:52:52.544Z</time>
      </trkpt>
      <trkpt lat="45.928501" lon="8.749006">
        <ele>829.283280</ele>
        <time>2022-09-13T13:52:53.950Z</time>
      </trkpt>
      <trkpt lat="45.928617" lon="8.749206">
        <ele>826.442218</ele>
        <time>2022-09-13T13:52:59.161Z</time>
      </trkpt>
      <trkpt lat="45.928635" lon="8.749289">
        <ele>825.493698</ele>
        <time>2022-09-13T13:53:00.632Z</time>
      </trkpt>
      <trkpt lat="45.928536" lon="8.749253">
        <ele>823.891957</ele>
        <time>2022-09-13T13:53:03.184Z</time>
      </trkpt>
      <trkpt lat="45.928477" lon="8.749273">
        <ele>822.941151</ele>
        <time>2022-09-13T13:53:04.675Z</time>
      </trkpt>
      <trkpt lat="45.928435" lon="8.749385">
        <ele>821.552959</ele>
        <time>2022-09-13T13:53:06.880Z</time>
      </trkpt>
      <trkpt lat="45.928321" lon="8.749426">
        <ele>819.709740</ele>
        <time>2022-09-13T13:53:09.608Z</time>
      </trkpt>
      <trkpt lat="45.928302" lon="8.749332">
        <ele>818.641774</ele>
        <time>2022-09-13T13:53:11.319Z</time>
      </trkpt>
      <trkpt lat="45.928167" lon="8.749212">
        <ele>816.152224</ele>
        <time>2022-09-13T13:53:15.239Z</time>
      </trkpt>
      <trkpt lat="45.927849" lon="8.749074">
        <ele>810.942033</ele>
        <time>2022-09-13T13:53:23.212Z</time>
      </trkpt>
      <trkpt lat="45.927707" lon="8.749069">
        <ele>808.207789</ele>
        <time>2022-09-13T13:53:26.533Z</time>
      </trkpt>
      <trkpt lat="45.927389" lon="8.748943">
        <ele>801.829648</ele>
        <time>2022-09-13T13:53:34.349Z</time>
      </trkpt>
      <trkpt lat="45.927141" lon="8.749130">
        <ele>796.414748</ele>
        <time>2022-09-13T13:53:40.906Z</time>
      </trkpt>
      <trkpt lat="45.926956" lon="8.749078">
        <ele>792.769836</ele>
        <time>2022-09-13T13:53:45.381Z</time>
      </trkpt>
      <trkpt lat="45.926681" lon="8.749084">
        <ele>787.451787</ele>
        <time>2022-09-13T13:53:51.894Z</time>
      </trkpt>
      <trkpt lat="45.926441" lon="8.749191">
        <ele>782.593090</ele>
        <time>2022-09-13T13:53:57.769Z</time>
      </trkpt>
      <trkpt lat="45.926132" lon="8.749176">
        <ele>776.614820</ele>
        <time>2022-09-13T13:54:05.006Z</time>
      </trkpt>
      <trkpt lat="45.925964" lon="8.749078">
        <ele>773.584950</ele>
        <time>2022-09-13T13:54:09.238Z</time>
      </trkpt>
      <trkpt lat="45.925583" lon="8.748995">
        <ele>767.315132</ele>
        <time>2022-09-13T13:54:18.279Z</time>
      </trkpt>
      <trkpt lat="45.925497" lon="8.748925">
        <ele>765.707162</ele>
        <time>2022-09-13T13:54:20.718Z</time>
      </trkpt>
      <trkpt lat="45.925235" lon="8.748828">
        <ele>761.305208</ele>
        <time>2022-09-13T13:54:27.252Z</time>
      </trkpt>
      <trkpt lat="45.924907" lon="8.748561">
        <ele>755.172347</ele>
        <time>2022-09-13T13:54:36.318Z</time>
      </trkpt>
      <trkpt lat="45.924779" lon="8.748497">
        <ele>752.967358</ele>
        <time>2022-09-13T13:54:39.578Z</time>
      </trkpt>
      <trkpt lat="45.924369" lon="8.748586">
        <ele>746.382525</ele>
        <time>2022-09-13T13:54:49.919Z</time>
      </trkpt>
      <trkpt lat="45.924058" lon="8.748467">
        <ele>742.501418</ele>
        <time>2022-09-13T13:54:58.052Z</time>
      </trkpt>
      <trkpt lat="45.923835" lon="8.748316">
        <ele>739.528741</ele>
        <time>2022-09-13T13:55:04.241Z</time>
      </trkpt>
      <trkpt lat="45.923575" lon="8.748044">
        <ele>735.650888</ele>
        <time>2022-09-13T13:55:12.262Z</time>
      </trkpt>
      <trkpt lat="45.922721" lon="8.747410">
        <ele>724.187336</ele>
        <time>2022-09-13T13:55:36.428Z</time>
      </trkpt>
      <trkpt lat="45.922596" lon="8.747379">
        <ele>722.835851</ele>
        <time>2022-09-13T13:55:39.616Z</time>
      </trkpt>
      <trkpt lat="45.922279" lon="8.747557">
        <ele>719.209862</ele>
        <time>2022-09-13T13:55:48.140Z</time>
      </trkpt>
      <trkpt lat="45.921931" lon="8.747640">
        <ele>715.451413</ele>
        <time>2022-09-13T13:55:57.130Z</time>
      </trkpt>
      <trkpt lat="45.921830" lon="8.747638">
        <ele>714.375207</ele>
        <time>2022-09-13T13:55:59.773Z</time>
      </trkpt>
      <trkpt lat="45.921697" lon="8.747580">
        <ele>712.894390</ele>
        <time>2022-09-13T13:56:03.431Z</time>
      </trkpt>
      <trkpt lat="45.921533" lon="8.747442">
        <ele>710.869708</ele>
        <time>2022-09-13T13:56:08.402Z</time>
      </trkpt>
      <trkpt lat="45.921272" lon="8.747133">
        <ele>707.267192</ele>
        <time>2022-09-13T13:56:17.098Z</time>
      </trkpt>
      <trkpt lat="45.921005" lon="8.746883">
        <ele>703.367289</ele>
        <time>2022-09-13T13:56:25.229Z</time>
      </trkpt>
      <trkpt lat="45.920548" lon="8.746623">
        <ele>696.882870</ele>
        <time>2022-09-13T13:56:37.787Z</time>
      </trkpt>
      <trkpt lat="45.920411" lon="8.746498">
        <ele>694.742023</ele>
        <time>2022-09-13T13:56:42.115Z</time>
      </trkpt>
      <trkpt lat="45.920168" lon="8.746364">
        <ele>691.308229</ele>
        <time>2022-09-13T13:56:48.640Z</time>
      </trkpt>
      <trkpt lat="45.919973" lon="8.746179">
        <ele>688.225719</ele>
        <time>2022-09-13T13:56:54.193Z</time>
      </trkpt>
      <trkpt lat="45.919948" lon="8.746229">
        <ele>687.660576</ele>
        <time>2022-09-13T13:56:55.196Z</time>
      </trkpt>
      <trkpt lat="45.919975" lon="8.746364">
        <ele>686.371338</ele>
        <time>2022-09-13T13:56:57.686Z</time>
      </trkpt>
      <trkpt lat="45.920076" lon="8.746566">
        <ele>684.088163</ele>
        <time>2022-09-13T13:57:01.776Z</time>
      </trkpt>
      <trkpt lat="45.920158" lon="8.746704">
        <ele>682.422438</ele>
        <time>2022-09-13T13:57:04.755Z</time>
      </trkpt>
      <trkpt lat="45.920318" lon="8.746826">
        <ele>679.244039</ele>
        <time>2022-09-13T13:57:09.121Z</time>
      </trkpt>
      <trkpt lat="45.920330" lon="8.746872">
        <ele>678.633485</ele>
        <time>2022-09-13T13:57:09.930Z</time>
      </trkpt>
      <trkpt lat="45.920305" lon="8.746903">
        <ele>678.043657</ele>
        <time>2022-09-13T13:57:10.703Z</time>
      </trkpt>
      <trkpt lat="45.919819" lon="8.746686">
        <ele>668.952152</ele>
        <time>2022-09-13T13:57:22.842Z</time>
      </trkpt>
      <trkpt lat="45.919946" lon="8.747004">
        <ele>664.395123</ele>
        <time>2022-09-13T13:57:37.662Z</time>
      </trkpt>
      <trkpt lat="45.920097" lon="8.747172">
        <ele>660.983928</ele>
        <time>2022-09-13T13:57:49.270Z</time>
      </trkpt>
      <trkpt lat="45.920269" lon="8.747304">
        <ele>657.500688</ele>
        <time>2022-09-13T13:58:01.142Z</time>
      </trkpt>
      <trkpt lat="45.920435" lon="8.747530">
        <ele>653.416172</ele>
        <time>2022-09-13T13:58:15.352Z</time>
      </trkpt>
      <trkpt lat="45.920539" lon="8.747597">
        <ele>651.380177</ele>
        <time>2022-09-13T13:58:22.033Z</time>
      </trkpt>
      <trkpt lat="45.920704" lon="8.747977">
        <ele>645.268155</ele>
        <time>2022-09-13T13:58:40.101Z</time>
      </trkpt>
      <trkpt lat="45.920792" lon="8.748489">
        <ele>637.885982</ele>
        <time>2022-09-13T13:59:01.073Z</time>
      </trkpt>
      <trkpt lat="45.920553" lon="8.748494">
        <ele>633.076493</ele>
        <time>2022-09-13T13:59:15.784Z</time>
      </trkpt>
      <trkpt lat="45.920501" lon="8.748568">
        <ele>631.604195</ele>
        <time>2022-09-13T13:59:20.066Z</time>
      </trkpt>
      <trkpt lat="45.920495" lon="8.748621">
        <ele>630.852570</ele>
        <time>2022-09-13T13:59:22.269Z</time>
      </trkpt>
      <trkpt lat="45.920524" lon="8.748684">
        <ele>629.795151</ele>
        <time>2022-09-13T13:59:25.282Z</time>
      </trkpt>
      <trkpt lat="45.920505" lon="8.748769">
        <ele>628.545454</ele>
        <time>2022-09-13T13:59:29.359Z</time>
      </trkpt>
      <trkpt lat="45.920439" lon="8.748812">
        <ele>627.087419</ele>
        <time>2022-09-13T13:59:34.147Z</time>
      </trkpt>
      <trkpt lat="45.920444" lon="8.748973">
        <ele>624.831579</ele>
        <time>2022-09-13T13:59:41.184Z</time>
      </trkpt>
      <trkpt lat="45.920499" lon="8.749062">
        <ele>623.165244</ele>
        <time>2022-09-13T13:59:46.160Z</time>
      </trkpt>
      <trkpt lat="45.920715" lon="8.749299">
        <ele>617.697660</ele>
        <time>2022-09-13T13:59:52.744Z</time>
      </trkpt>
      <trkpt lat="45.920809" lon="8.749516">
        <ele>614.119475</ele>
        <time>2022-09-13T13:59:56.922Z</time>
      </trkpt>
      <trkpt lat="45.920809" lon="8.749610">
        <ele>612.329235</ele>
        <time>2022-09-13T13:59:58.523Z</time>
      </trkpt>
      <trkpt lat="45.920653" lon="8.749773">
        <ele>606.824661</ele>
        <time>2022-09-13T14:00:03.070Z</time>
      </trkpt>
      <trkpt lat="45.920707" lon="8.749864">
        <ele>604.449730</ele>
        <time>2022-09-13T14:00:07.865Z</time>
      </trkpt>
      <trkpt lat="45.920831" lon="8.749923">
        <ele>600.721641</ele>
        <time>2022-09-13T14:00:15.438Z</time>
      </trkpt>
      <trkpt lat="45.921047" lon="8.750199">
        <ele>592.472965</ele>
        <time>2022-09-13T14:00:32.218Z</time>
      </trkpt>
      <trkpt lat="45.921177" lon="8.750302">
        <ele>588.236185</ele>
        <time>2022-09-13T14:00:40.822Z</time>
      </trkpt>
      <trkpt lat="45.921200" lon="8.750618">
        <ele>581.927630</ele>
        <time>2022-09-13T14:00:46.124Z</time>
      </trkpt>
      <trkpt lat="45.921177" lon="8.750779">
        <ele>578.664201</ele>
        <time>2022-09-13T14:00:48.805Z</time>
      </trkpt>
      <trkpt lat="45.921134" lon="8.750924">
        <ele>575.534480</ele>
        <time>2022-09-13T14:00:51.356Z</time>
      </trkpt>
      <trkpt lat="45.921070" lon="8.751016">
        <ele>572.951130</ele>
        <time>2022-09-13T14:00:53.489Z</time>
      </trkpt>
      <trkpt lat="45.921063" lon="8.751179">
        <ele>569.708532</ele>
        <time>2022-09-13T14:00:56.199Z</time>
      </trkpt>
      <trkpt lat="45.921119" lon="8.751405">
        <ele>564.945036</ele>
        <time>2022-09-13T14:01:00.094Z</time>
      </trkpt>
      <trkpt lat="45.921182" lon="8.751713">
        <ele>557.639004</ele>
        <time>2022-09-13T14:01:05.446Z</time>
      </trkpt>
      <trkpt lat="45.921195" lon="8.751937">
        <ele>552.143961</ele>
        <time>2022-09-13T14:01:09.118Z</time>
      </trkpt>
      <trkpt lat="45.921246" lon="8.752065">
        <ele>548.537890</ele>
        <time>2022-09-13T14:01:11.589Z</time>
      </trkpt>
      <trkpt lat="45.921280" lon="8.752243">
        <ele>544.025358</ele>
        <time>2022-09-13T14:01:14.653Z</time>
      </trkpt>
      <trkpt lat="45.921289" lon="8.752463">
        <ele>538.637842</ele>
        <time>2022-09-13T14:01:18.246Z</time>
      </trkpt>
      <trkpt lat="45.921338" lon="8.752583">
        <ele>535.236221</ele>
        <time>2022-09-13T14:01:20.610Z</time>
      </trkpt>
      <trkpt lat="45.921372" lon="8.752687">
        <ele>532.427027</ele>
        <time>2022-09-13T14:01:22.550Z</time>
      </trkpt>
      <trkpt lat="45.921463" lon="8.752807">
        <ele>528.087372</ele>
        <time>2022-09-13T14:01:25.446Z</time>
      </trkpt>
      <trkpt lat="45.921521" lon="8.752984">
        <ele>523.304334</ele>
        <time>2022-09-13T14:01:28.768Z</time>
      </trkpt>
      <trkpt lat="45.921538" lon="8.753041">
        <ele>521.788225</ele>
        <time>2022-09-13T14:01:29.832Z</time>
      </trkpt>
      <trkpt lat="45.921540" lon="8.753417">
        <ele>512.596124</ele>
        <time>2022-09-13T14:01:36.074Z</time>
      </trkpt>
      <trkpt lat="45.921370" lon="8.753751">
        <ele>502.478842</ele>
        <time>2022-09-13T14:01:42.951Z</time>
      </trkpt>
      <trkpt lat="45.921292" lon="8.754527">
        <ele>486.203658</ele>
        <time>2022-09-13T14:01:55.971Z</time>
      </trkpt>
      <trkpt lat="45.921298" lon="8.754810">
        <ele>480.527025</ele>
        <time>2022-09-13T14:02:00.579Z</time>
      </trkpt>
      <trkpt lat="45.921338" lon="8.754971">
        <ele>477.099371</ele>
        <time>2022-09-13T14:02:03.427Z</time>
      </trkpt>
      <trkpt lat="45.921346" lon="8.755196">
        <ele>472.582357</ele>
        <time>2022-09-13T14:02:07.071Z</time>
      </trkpt>
      <trkpt lat="45.921269" lon="8.755525">
        <ele>465.622771</ele>
        <time>2022-09-13T14:02:12.723Z</time>
      </trkpt>
      <trkpt lat="45.921127" lon="8.755663">
        <ele>460.682629</ele>
        <time>2022-09-13T14:02:16.701Z</time>
      </trkpt>
      <trkpt lat="45.920998" lon="8.755706">
        <ele>456.866025</ele>
        <time>2022-09-13T14:02:19.802Z</time>
      </trkpt>
      <trkpt lat="45.920831" lon="8.755665">
        <ele>451.983165</ele>
        <time>2022-09-13T14:02:23.911Z</time>
      </trkpt>
      <trkpt lat="45.920575" lon="8.755446">
        <ele>444.429451</ele>
        <time>2022-09-13T14:02:30.847Z</time>
      </trkpt>
      <trkpt lat="45.920504" lon="8.755415">
        <ele>442.822096</ele>
        <time>2022-09-13T14:02:32.607Z</time>
      </trkpt>
      <trkpt lat="45.920408" lon="8.755436">
        <ele>440.718639</ele>
        <time>2022-09-13T14:02:34.866Z</time>
      </trkpt>
      <trkpt lat="45.920193" lon="8.755673">
        <ele>434.849677</ele>
        <time>2022-09-13T14:02:41.237Z</time>
      </trkpt>
      <trkpt lat="45.920050" lon="8.755696">
        <ele>431.732734</ele>
        <time>2022-09-13T14:02:44.836Z</time>
      </trkpt>
      <trkpt lat="45.919973" lon="8.755762">
        <ele>429.790775</ele>
        <time>2022-09-13T14:02:46.967Z</time>
      </trkpt>
      <trkpt lat="45.919714" lon="8.755831">
        <ele>424.084873</ele>
        <time>2022-09-13T14:02:53.122Z</time>
      </trkpt>
      <trkpt lat="45.919595" lon="8.755831">
        <ele>421.507139</ele>
        <time>2022-09-13T14:02:55.963Z</time>
      </trkpt>
      <trkpt lat="45.919412" lon="8.755648">
        <ele>416.678190</ele>
        <time>2022-09-13T14:03:01.161Z</time>
      </trkpt>
      <trkpt lat="45.919315" lon="8.755473">
        <ele>413.306330</ele>
        <time>2022-09-13T14:03:04.874Z</time>
      </trkpt>
      <trkpt lat="45.919201" lon="8.755461">
        <ele>410.830291</ele>
        <time>2022-09-13T14:03:07.581Z</time>
      </trkpt>
      <trkpt lat="45.919157" lon="8.755533">
        <ele>409.386117</ele>
        <time>2022-09-13T14:03:09.398Z</time>
      </trkpt>
      <trkpt lat="45.919086" lon="8.755507">
        <ele>407.872190</ele>
        <time>2022-09-13T14:03:11.245Z</time>
      </trkpt>
      <trkpt lat="45.919015" lon="8.755410">
        <ele>405.946439</ele>
        <time>2022-09-13T14:03:13.617Z</time>
      </trkpt>
      <trkpt lat="45.918937" lon="8.755359">
        <ele>404.261760</ele>
        <time>2022-09-13T14:03:15.644Z</time>
      </trkpt>
      <trkpt lat="45.918873" lon="8.755425">
        <ele>402.713200</ele>
        <time>2022-09-13T14:03:17.478Z</time>
      </trkpt>
      <trkpt lat="45.918899" lon="8.755624">
        <ele>399.943875</ele>
        <time>2022-09-13T14:03:20.967Z</time>
      </trkpt>
      <trkpt lat="45.918867" lon="8.755742">
        <ele>398.211691</ele>
        <time>2022-09-13T14:03:23.007Z</time>
      </trkpt>
      <trkpt lat="45.918779" lon="8.755765">
        <ele>396.453233</ele>
        <time>2022-09-13T14:03:25.182Z</time>
      </trkpt>
      <trkpt lat="45.918692" lon="8.755688">
        <ele>394.444581</ele>
        <time>2022-09-13T14:03:27.729Z</time>
      </trkpt>
      <trkpt lat="45.918619" lon="8.755466">
        <ele>391.086152</ele>
        <time>2022-09-13T14:03:31.747Z</time>
      </trkpt>
      <trkpt lat="45.918526" lon="8.755318">
        <ele>388.358425</ele>
        <time>2022-09-13T14:03:34.997Z</time>
      </trkpt>
      <trkpt lat="45.918354" lon="8.755214">
        <ele>384.689890</ele>
        <time>2022-09-13T14:03:39.507Z</time>
      </trkpt>
      <trkpt lat="45.918241" lon="8.755066">
        <ele>381.684395</ele>
        <time>2022-09-13T14:03:43.164Z</time>
      </trkpt>
      <trkpt lat="45.918182" lon="8.754900">
        <ele>379.134825</ele>
        <time>2022-09-13T14:03:46.618Z</time>
      </trkpt>
      <trkpt lat="45.918179" lon="8.754770">
        <ele>377.355803</ele>
        <time>2022-09-13T14:03:48.937Z</time>
      </trkpt>
      <trkpt lat="45.918143" lon="8.754670">
        <ele>375.815800</ele>
        <time>2022-09-13T14:03:50.745Z</time>
      </trkpt>
      <trkpt lat="45.918047" lon="8.754616">
        <ele>373.789061</ele>
        <time>2022-09-13T14:03:53.224Z</time>
      </trkpt>
      <trkpt lat="45.917932" lon="8.754611">
        <ele>371.848906</ele>
        <time>2022-09-13T14:03:56.393Z</time>
      </trkpt>
      <trkpt lat="45.917721" lon="8.754678">
        <ele>368.403713</ele>
        <time>2022-09-13T14:04:01.606Z</time>
      </trkpt>
      <trkpt lat="45.917662" lon="8.754803">
        <ele>366.728253</ele>
        <time>2022-09-13T14:04:04.258Z</time>
      </trkpt>
      <trkpt lat="45.917664" lon="8.755232">
        <ele>361.969770</ele>
        <time>2022-09-13T14:04:11.761Z</time>
      </trkpt>
      <trkpt lat="45.917628" lon="8.755385">
        <ele>360.178291</ele>
        <time>2022-09-13T14:04:14.588Z</time>
      </trkpt>
      <trkpt lat="45.917541" lon="8.755425">
        <ele>358.721974</ele>
        <time>2022-09-13T14:04:16.878Z</time>
      </trkpt>
      <trkpt lat="45.917303" lon="8.755405">
        <ele>354.920931</ele>
        <time>2022-09-13T14:04:22.474Z</time>
      </trkpt>
      <trkpt lat="45.917238" lon="8.755500">
        <ele>353.442986</ele>
        <time>2022-09-13T14:04:24.768Z</time>
      </trkpt>
      <trkpt lat="45.917186" lon="8.755642">
        <ele>351.663065</ele>
        <time>2022-09-13T14:04:27.682Z</time>
      </trkpt>
      <trkpt lat="45.917094" lon="8.755696">
        <ele>350.078679</ele>
        <time>2022-09-13T14:04:30.001Z</time>
      </trkpt>
      <trkpt lat="45.916970" lon="8.755642">
        <ele>348.012939</ele>
        <time>2022-09-13T14:04:33.024Z</time>
      </trkpt>
      <trkpt lat="45.916891" lon="8.755487">
        <ele>345.881681</ele>
        <time>2022-09-13T14:04:36.377Z</time>
      </trkpt>
      <trkpt lat="45.916828" lon="8.755425">
        <ele>344.664373</ele>
        <time>2022-09-13T14:04:38.165Z</time>
      </trkpt>
      <trkpt lat="45.916739" lon="8.755533">
        <ele>342.765772</ele>
        <time>2022-09-13T14:04:40.884Z</time>
      </trkpt>
      <trkpt lat="45.916670" lon="8.755551">
        <ele>341.621060</ele>
        <time>2022-09-13T14:04:42.703Z</time>
      </trkpt>
      <trkpt lat="45.916584" lon="8.755403">
        <ele>339.431193</ele>
        <time>2022-09-13T14:04:46.143Z</time>
      </trkpt>
      <trkpt lat="45.916522" lon="8.755369">
        <ele>338.347991</ele>
        <time>2022-09-13T14:04:47.696Z</time>
      </trkpt>
      <trkpt lat="45.916467" lon="8.755410">
        <ele>337.336651</ele>
        <time>2022-09-13T14:04:49.161Z</time>
      </trkpt>
      <trkpt lat="45.916403" lon="8.755538">
        <ele>335.546580</ele>
        <time>2022-09-13T14:04:51.910Z</time>
      </trkpt>
      <trkpt lat="45.916322" lon="8.755505">
        <ele>334.172302</ele>
        <time>2022-09-13T14:04:54.230Z</time>
      </trkpt>
      <trkpt lat="45.916151" lon="8.755504">
        <ele>331.380982</ele>
        <time>2022-09-13T14:04:58.226Z</time>
      </trkpt>
      <trkpt lat="45.916349" lon="8.755692">
        <ele>327.507458</ele>
        <time>2022-09-13T14:05:04.458Z</time>
      </trkpt>
      <trkpt lat="45.915893" lon="8.755794">
        <ele>319.974407</ele>
        <time>2022-09-13T14:05:15.440Z</time>
      </trkpt>
      <trkpt lat="45.915517" lon="8.755668">
        <ele>314.386987</ele>
        <time>2022-09-13T14:05:24.887Z</time>
      </trkpt>
      <trkpt lat="45.915180" lon="8.755599">
        <ele>311.442590</ele>
        <time>2022-09-13T14:05:33.199Z</time>
      </trkpt>
      <trkpt lat="45.915089" lon="8.755631">
        <ele>310.632247</ele>
        <time>2022-09-13T14:05:35.703Z</time>
      </trkpt>
      <trkpt lat="45.915324" lon="8.756132">
        <ele>306.996084</ele>
        <time>2022-09-13T14:05:46.872Z</time>
      </trkpt>
      <trkpt lat="45.915449" lon="8.756305">
        <ele>305.495120</ele>
        <time>2022-09-13T14:05:51.397Z</time>
      </trkpt>
      <trkpt lat="45.915576" lon="8.756569">
        <ele>303.563615</ele>
        <time>2022-09-13T14:05:58.010Z</time>
      </trkpt>
      <trkpt lat="45.915720" lon="8.756944">
        <ele>300.986020</ele>
        <time>2022-09-13T14:06:06.945Z</time>
      </trkpt>
      <trkpt lat="45.915918" lon="8.757222">
        <ele>299.038959</ele>
        <time>2022-09-13T14:06:15.038Z</time>
      </trkpt>
      <trkpt lat="45.916116" lon="8.757596">
        <ele>297.423136</ele>
        <time>2022-09-13T14:06:24.693Z</time>
      </trkpt>
      <trkpt lat="45.916171" lon="8.758030">
        <ele>295.906438</ele>
        <time>2022-09-13T14:06:33.661Z</time>
      </trkpt>
      <trkpt lat="45.916688" lon="8.758688">
        <ele>292.493864</ele>
        <time>2022-09-13T14:06:45.280Z</time>
      </trkpt>
      <trkpt lat="45.916688" lon="8.758688">
        <ele>292.493864</ele>
        <time>2022-09-13T14:06:45.294Z</time>
      </trkpt>
      <trkpt lat="45.917123" lon="8.758973">
        <ele>290.331703</ele>
        <time>2022-09-13T14:06:53.384Z</time>
      </trkpt>
      <trkpt lat="45.917386" lon="8.759210">
        <ele>289.297581</ele>
        <time>2022-09-13T14:06:58.671Z</time>
      </trkpt>
      <trkpt lat="45.917547" lon="8.759394">
        <ele>288.612343</ele>
        <time>2022-09-13T14:07:02.500Z</time>
      </trkpt>
      <trkpt lat="45.917778" lon="8.759683">
        <ele>287.592108</ele>
        <time>2022-09-13T14:07:08.088Z</time>
      </trkpt>
      <trkpt lat="45.918059" lon="8.759922">
        <ele>286.504361</ele>
        <time>2022-09-13T14:07:14.179Z</time>
      </trkpt>
      <trkpt lat="45.918213" lon="8.760102">
        <ele>285.843110</ele>
        <time>2022-09-13T14:07:18.053Z</time>
      </trkpt>
      <trkpt lat="45.918262" lon="8.760207">
        <ele>285.550076</ele>
        <time>2022-09-13T14:07:19.700Z</time>
      </trkpt>
      <trkpt lat="45.918282" lon="8.760328">
        <ele>285.261834</ele>
        <time>2022-09-13T14:07:21.427Z</time>
      </trkpt>
      <trkpt lat="45.918294" lon="8.760662">
        <ele>284.658891</ele>
        <time>2022-09-13T14:07:25.991Z</time>
      </trkpt>
      <trkpt lat="45.918329" lon="8.760872">
        <ele>284.480786</ele>
        <time>2022-09-13T14:07:28.999Z</time>
      </trkpt>
      <trkpt lat="45.918427" lon="8.761190">
        <ele>284.193924</ele>
        <time>2022-09-13T14:07:33.650Z</time>
      </trkpt>
      <trkpt lat="45.918513" lon="8.761395">
        <ele>283.996482</ele>
        <time>2022-09-13T14:07:37.390Z</time>
      </trkpt>
      <trkpt lat="45.918719" lon="8.761762">
        <ele>283.607548</ele>
        <time>2022-09-13T14:07:44.761Z</time>
      </trkpt>
      <trkpt lat="45.919315" lon="8.762633">
        <ele>282.578288</ele>
        <time>2022-09-13T14:08:03.466Z</time>
      </trkpt>
      <trkpt lat="45.919403" lon="8.762742">
        <ele>282.303372</ele>
        <time>2022-09-13T14:08:05.640Z</time>
      </trkpt>
      <trkpt lat="45.919502" lon="8.763042">
        <ele>281.756698</ele>
        <time>2022-09-13T14:08:10.890Z</time>
      </trkpt>
      <trkpt lat="45.919592" lon="8.763212">
        <ele>281.404981</ele>
        <time>2022-09-13T14:08:13.759Z</time>
      </trkpt>
      <trkpt lat="45.920045" lon="8.763821">
        <ele>279.937097</ele>
        <time>2022-09-13T14:08:25.772Z</time>
      </trkpt>
      <trkpt lat="45.919814" lon="8.764291">
        <ele>278.989657</ele>
        <time>2022-09-13T14:08:32.668Z</time>
      </trkpt>
      <trkpt lat="45.919739" lon="8.764805">
        <ele>278.120438</ele>
        <time>2022-09-13T14:08:38.799Z</time>
      </trkpt>
      <trkpt lat="45.919643" lon="8.765108">
        <ele>277.561858</ele>
        <time>2022-09-13T14:08:42.652Z</time>
      </trkpt>
      <trkpt lat="45.919256" lon="8.766315">
        <ele>275.332147</ele>
        <time>2022-09-13T14:08:58.695Z</time>
      </trkpt>
      <trkpt lat="45.919086" lon="8.766729">
        <ele>274.525604</ele>
        <time>2022-09-13T14:09:05.373Z</time>
      </trkpt>
      <trkpt lat="45.919025" lon="8.766673">
        <ele>274.351053</ele>
        <time>2022-09-13T14:09:06.855Z</time>
      </trkpt>
      <trkpt lat="45.918812" lon="8.766924">
        <ele>274.192586</ele>
        <time>2022-09-13T14:09:12.694Z</time>
      </trkpt>
      <trkpt lat="45.918615" lon="8.766997">
        <ele>274.431005</ele>
        <time>2022-09-13T14:09:17.335Z</time>
      </trkpt>
      <trkpt lat="45.918437" lon="8.767134">
        <ele>274.667631</ele>
        <time>2022-09-13T14:09:22.042Z</time>
      </trkpt>
      <trkpt lat="45.918359" lon="8.767022">
        <ele>274.796836</ele>
        <time>2022-09-13T14:09:24.808Z</time>
      </trkpt>
      <trkpt lat="45.918318" lon="8.766905">
        <ele>274.903643</ele>
        <time>2022-09-13T14:09:26.994Z</time>
      </trkpt>
      <trkpt lat="45.918139" lon="8.766579">
        <ele>275.242241</ele>
        <time>2022-09-13T14:09:34.407Z</time>
      </trkpt>
      <trkpt lat="45.918153" lon="8.766471">
        <ele>275.331809</ele>
        <time>2022-09-13T14:09:36.378Z</time>
      </trkpt>
      <trkpt lat="45.918069" lon="8.766270">
        <ele>275.522979</ele>
        <time>2022-09-13T14:09:40.716Z</time>
      </trkpt>
      <trkpt lat="45.917999" lon="8.766216">
        <ele>275.616081</ele>
        <time>2022-09-13T14:09:42.873Z</time>
      </trkpt>
      <trkpt lat="45.917887" lon="8.766088">
        <ele>275.783769</ele>
        <time>2022-09-13T14:09:46.831Z</time>
      </trkpt>
      <trkpt lat="45.917869" lon="8.765907">
        <ele>275.932838</ele>
        <time>2022-09-13T14:09:50.308Z</time>
      </trkpt>
      <trkpt lat="45.917815" lon="8.765732">
        <ele>276.088921</ele>
        <time>2022-09-13T14:09:53.998Z</time>
      </trkpt>
      <trkpt lat="45.917714" lon="8.765602">
        <ele>276.287640</ele>
        <time>2022-09-13T14:09:57.761Z</time>
      </trkpt>
      <trkpt lat="45.917556" lon="8.765489">
        <ele>276.567545</ele>
        <time>2022-09-13T14:10:02.596Z</time>
      </trkpt>
      <trkpt lat="45.917531" lon="8.765226">
        <ele>276.860441</ele>
        <time>2022-09-13T14:10:07.644Z</time>
      </trkpt>
      <trkpt lat="45.917526" lon="8.765137">
        <ele>276.958965</ele>
        <time>2022-09-13T14:10:09.302Z</time>
      </trkpt>
      <trkpt lat="45.917497" lon="8.765079">
        <ele>277.037777</ele>
        <time>2022-09-13T14:10:10.583Z</time>
      </trkpt>
      <trkpt lat="45.917276" lon="8.764755">
        <ele>277.538455</ele>
        <time>2022-09-13T14:10:18.986Z</time>
      </trkpt>
      <trkpt lat="45.917268" lon="8.764615">
        <ele>277.693455</ele>
        <time>2022-09-13T14:10:21.446Z</time>
      </trkpt>
      <trkpt lat="45.917308" lon="8.764108">
        <ele>278.256476</ele>
        <time>2022-09-13T14:10:30.358Z</time>
      </trkpt>
      <trkpt lat="45.917272" lon="8.763938">
        <ele>278.452556</ele>
        <time>2022-09-13T14:10:33.460Z</time>
      </trkpt>
      <trkpt lat="45.917193" lon="8.763762">
        <ele>278.683673</ele>
        <time>2022-09-13T14:10:37.040Z</time>
      </trkpt>
      <trkpt lat="45.917060" lon="8.763597">
        <ele>278.962324</ele>
        <time>2022-09-13T14:10:41.326Z</time>
      </trkpt>
      <trkpt lat="45.916920" lon="8.763473">
        <ele>279.052178</ele>
        <time>2022-09-13T14:10:45.393Z</time>
      </trkpt>
      <trkpt lat="45.916740" lon="8.763374">
        <ele>279.135741</ele>
        <time>2022-09-13T14:10:49.937Z</time>
      </trkpt>
      <trkpt lat="45.916477" lon="8.763075">
        <ele>279.281132</ele>
        <time>2022-09-13T14:10:57.723Z</time>
      </trkpt>
      <trkpt lat="45.916423" lon="8.763085">
        <ele>279.304739</ele>
        <time>2022-09-13T14:10:58.967Z</time>
      </trkpt>
      <trkpt lat="45.916344" lon="8.763183">
        <ele>279.349985</ele>
        <time>2022-09-13T14:11:01.341Z</time>
      </trkpt>
      <trkpt lat="45.916233" lon="8.763240">
        <ele>279.401092</ele>
        <time>2022-09-13T14:11:04.033Z</time>
      </trkpt>
      <trkpt lat="45.916132" lon="8.763178">
        <ele>279.448710</ele>
        <time>2022-09-13T14:11:06.537Z</time>
      </trkpt>
      <trkpt lat="45.915999" lon="8.763018">
        <ele>279.523910</ele>
        <time>2022-09-13T14:11:10.477Z</time>
      </trkpt>
      <trkpt lat="45.915898" lon="8.762863">
        <ele>279.587971</ele>
        <time>2022-09-13T14:11:13.839Z</time>
      </trkpt>
      <trkpt lat="45.915859" lon="8.762682">
        <ele>279.645129</ele>
        <time>2022-09-13T14:11:16.840Z</time>
      </trkpt>
      <trkpt lat="45.915740" lon="8.762454">
        <ele>279.731108</ele>
        <time>2022-09-13T14:11:21.318Z</time>
      </trkpt>
      <trkpt lat="45.915513" lon="8.762128">
        <ele>279.796388</ele>
        <time>2022-09-13T14:11:28.548Z</time>
      </trkpt>
      <trkpt lat="45.915434" lon="8.761849">
        <ele>279.821794</ele>
        <time>2022-09-13T14:11:33.267Z</time>
      </trkpt>
      <trkpt lat="45.915338" lon="8.761366">
        <ele>279.864162</ele>
        <time>2022-09-13T14:11:41.060Z</time>
      </trkpt>
      <trkpt lat="45.915304" lon="8.761288">
        <ele>279.871926</ele>
        <time>2022-09-13T14:11:42.493Z</time>
      </trkpt>
      <trkpt lat="45.915222" lon="8.761268">
        <ele>279.882009</ele>
        <time>2022-09-13T14:11:44.320Z</time>
      </trkpt>
      <trkpt lat="45.914898" lon="8.761664">
        <ele>279.933569</ele>
        <time>2022-09-13T14:11:53.701Z</time>
      </trkpt>
      <trkpt lat="45.914848" lon="8.761704">
        <ele>279.940506</ele>
        <time>2022-09-13T14:11:54.958Z</time>
      </trkpt>
      <trkpt lat="45.914792" lon="8.761691">
        <ele>279.947383</ele>
        <time>2022-09-13T14:11:56.210Z</time>
      </trkpt>
      <trkpt lat="45.914669" lon="8.761574">
        <ele>279.965265</ele>
        <time>2022-09-13T14:11:59.440Z</time>
      </trkpt>
      <trkpt lat="45.914496" lon="8.761489">
        <ele>279.985886</ele>
        <time>2022-09-13T14:12:03.461Z</time>
      </trkpt>
      <trkpt lat="45.914421" lon="8.760780">
        <ele>279.989834</ele>
        <time>2022-09-13T14:12:14.365Z</time>
      </trkpt>
      <trkpt lat="45.914302" lon="8.760201">
        <ele>279.993159</ele>
        <time>2022-09-13T14:12:23.526Z</time>
      </trkpt>
      <trkpt lat="45.914197" lon="8.759836">
        <ele>279.995333</ele>
        <time>2022-09-13T14:12:29.507Z</time>
      </trkpt>
      <trkpt lat="45.913697" lon="8.759686">
        <ele>279.999375</ele>
        <time>2022-09-13T14:12:40.639Z</time>
      </trkpt>
      <trkpt lat="45.913458" lon="8.759718">
        <ele>280.000012</ele>
        <time>2022-09-13T14:12:45.865Z</time>
      </trkpt>
      <trkpt lat="45.913189" lon="8.759697">
        <ele>280.000012</ele>
        <time>2022-09-13T14:12:51.731Z</time>
      </trkpt>
      <trkpt lat="45.912936" lon="8.759514">
        <ele>280.000012</ele>
        <time>2022-09-13T14:12:57.913Z</time>
      </trkpt>
      <trkpt lat="45.912883" lon="8.759707">
        <ele>280.000012</ele>
        <time>2022-09-13T14:13:01.054Z</time>
      </trkpt>
      <trkpt lat="45.912749" lon="8.759986">
        <ele>280.000012</ele>
        <time>2022-09-13T14:13:06.198Z</time>
      </trkpt>
      <trkpt lat="45.912540" lon="8.760136">
        <ele>280.000012</ele>
        <time>2022-09-13T14:13:11.287Z</time>
      </trkpt>
      <trkpt lat="45.912351" lon="8.760080">
        <ele>280.000012</ele>
        <time>2022-09-13T14:13:15.501Z</time>
      </trkpt>
      <trkpt lat="45.912236" lon="8.759750">
        <ele>280.000012</ele>
        <time>2022-09-13T14:13:21.085Z</time>
      </trkpt>
      <trkpt lat="45.912269" lon="8.759310">
        <ele>280.000012</ele>
        <time>2022-09-13T14:13:27.791Z</time>
      </trkpt>
      <trkpt lat="45.912281" lon="8.759123">
        <ele>280.000012</ele>
        <time>2022-09-13T14:13:30.647Z</time>
      </trkpt>
      <trkpt lat="45.912183" lon="8.758055">
        <ele>280.000012</ele>
        <time>2022-09-13T14:13:46.969Z</time>
      </trkpt>
      <trkpt lat="45.911973" lon="8.757626">
        <ele>280.000012</ele>
        <time>2022-09-13T14:13:54.934Z</time>
      </trkpt>
      <trkpt lat="45.911435" lon="8.756768">
        <ele>280.000012</ele>
        <time>2022-09-13T14:14:12.441Z</time>
      </trkpt>
      <trkpt lat="45.910972" lon="8.756381">
        <ele>280.000012</ele>
        <time>2022-09-13T14:14:24.102Z</time>
      </trkpt>
      <trkpt lat="45.910760" lon="8.756048">
        <ele>280.000012</ele>
        <time>2022-09-13T14:14:30.959Z</time>
      </trkpt>
      <trkpt lat="45.910613" lon="8.755844">
        <ele>280.000012</ele>
        <time>2022-09-13T14:14:35.643Z</time>
      </trkpt>
      <trkpt lat="45.910118" lon="8.755389">
        <ele>280.000012</ele>
        <time>2022-09-13T14:14:49.120Z</time>
      </trkpt>
      <trkpt lat="45.909894" lon="8.754906">
        <ele>280.000012</ele>
        <time>2022-09-13T14:14:58.384Z</time>
      </trkpt>
      <trkpt lat="45.909021" lon="8.754627">
        <ele>280.000012</ele>
        <time>2022-09-13T14:15:18.916Z</time>
      </trkpt>
      <trkpt lat="45.908816" lon="8.754299">
        <ele>280.000012</ele>
        <time>2022-09-13T14:15:25.956Z</time>
      </trkpt>
      <trkpt lat="45.908704" lon="8.753715">
        <ele>280.000012</ele>
        <time>2022-09-13T14:15:35.629Z</time>
      </trkpt>
      <trkpt lat="45.908571" lon="8.753248">
        <ele>280.000012</ele>
        <time>2022-09-13T14:15:43.680Z</time>
      </trkpt>
      <trkpt lat="45.908097" lon="8.752244">
        <ele>280.000012</ele>
        <time>2022-09-13T14:16:03.062Z</time>
      </trkpt>
      <trkpt lat="45.907744" lon="8.751784">
        <ele>280.000012</ele>
        <time>2022-09-13T14:16:13.986Z</time>
      </trkpt>
      <trkpt lat="45.907229" lon="8.751752">
        <ele>280.000012</ele>
        <time>2022-09-13T14:16:25.818Z</time>
      </trkpt>
      <trkpt lat="45.906459" lon="8.751961">
        <ele>280.000012</ele>
        <time>2022-09-13T14:16:43.804Z</time>
      </trkpt>
      <trkpt lat="45.906025" lon="8.751665">
        <ele>280.000012</ele>
        <time>2022-09-13T14:16:54.840Z</time>
      </trkpt>
      <trkpt lat="45.905651" lon="8.751148">
        <ele>280.000012</ele>
        <time>2022-09-13T14:17:06.740Z</time>
      </trkpt>
      <trkpt lat="45.904930" lon="8.749489">
        <ele>280.000012</ele>
        <time>2022-09-13T14:17:37.981Z</time>
      </trkpt>
      <trkpt lat="45.904448" lon="8.748840">
        <ele>280.000012</ele>
        <time>2022-09-13T14:17:53.152Z</time>
      </trkpt>
      <trkpt lat="45.904167" lon="8.747629">
        <ele>280.000012</ele>
        <time>2022-09-13T14:18:13.527Z</time>
      </trkpt>
      <trkpt lat="45.904069" lon="8.747092">
        <ele>280.000012</ele>
        <time>2022-09-13T14:18:22.393Z</time>
      </trkpt>
      <trkpt lat="45.903498" lon="8.745605">
        <ele>280.004065</ele>
        <time>2022-09-13T14:18:49.521Z</time>
      </trkpt>
      <trkpt lat="45.903209" lon="8.744946">
        <ele>280.040079</ele>
        <time>2022-09-13T14:19:01.945Z</time>
      </trkpt>
      <trkpt lat="45.903450" lon="8.744646">
        <ele>280.061264</ele>
        <time>2022-09-13T14:19:08.889Z</time>
      </trkpt>
      <trkpt lat="45.903422" lon="8.744473">
        <ele>280.069476</ele>
        <time>2022-09-13T14:19:13.273Z</time>
      </trkpt>
      <trkpt lat="45.903194" lon="8.743882">
        <ele>280.100719</ele>
        <time>2022-09-13T14:19:29.999Z</time>
      </trkpt>
      <trkpt lat="45.903050" lon="8.743355">
        <ele>280.119516</ele>
        <time>2022-09-13T14:19:44.063Z</time>
      </trkpt>
      <trkpt lat="45.903034" lon="8.743255">
        <ele>280.119516</ele>
        <time>2022-09-13T14:19:46.647Z</time>
      </trkpt>
      <trkpt lat="45.903051" lon="8.743073">
        <ele>280.119516</ele>
        <time>2022-09-13T14:19:51.222Z</time>
      </trkpt>
      <trkpt lat="45.903081" lon="8.743000">
        <ele>280.119516</ele>
        <time>2022-09-13T14:19:53.354Z</time>
      </trkpt>
      <trkpt lat="45.903383" lon="8.742716">
        <ele>280.119516</ele>
        <time>2022-09-13T14:20:06.411Z</time>
      </trkpt>
      <trkpt lat="45.903776" lon="8.742281">
        <ele>280.119516</ele>
        <time>2022-09-13T14:20:24.406Z</time>
      </trkpt>
      <trkpt lat="45.904325" lon="8.741463">
        <ele>280.119516</ele>
        <time>2022-09-13T14:20:44.287Z</time>
      </trkpt>
      <trkpt lat="45.904446" lon="8.741283">
        <ele>280.119516</ele>
        <time>2022-09-13T14:20:48.794Z</time>
      </trkpt>
      <trkpt lat="45.904478" lon="8.741270">
        <ele>280.119516</ele>
        <time>2022-09-13T14:20:49.630Z</time>
      </trkpt>
    </trkseg>
  </trk>
</gpx>